Tutupan Arah Kecepatan Ceiling Radiasi
Temperatur Tekanan Precipitation
Tahun Bulan Hari Jam Awan Angin Angin Height Matahari
C (mbar) (mm)
(Tenth) Humidity % (Deg) (m/s) (m) (Whm-2)
2025 4 1 0 1 25,7 0,0002 1009,415 30,9637 0,55 0 0
2025 4 1 1 1 26,3 0,0002 1010,081 56,30989 0,76 0 0
2025 4 1 2 1 27,5 0,0002 1010,54 35,53763 0,99 0 0
2025 4 1 3 1 28,5 0,0002 1010,418 352,875 0,74 0 0
2025 4 1 4 1 28,9 0,0002 1009,851 318,0128 1,9 0 0
2025 4 1 5 1 29,7 0,0002 1008,899 299,3578 2,41 655,4 0,0135 407,6
2025 4 1 6 1 29,8 0,0002 1008,048 293,9625 2,44 342,8 0,0056 408,8
2025 4 1 7 1 29,1 0,0002 1006,945 295,2012 2,34 449,8 0,0283 410,9
2025 4 1 8 1 28,3 0,0002 1006,104 295,2012 2,34 600,1 0,0422 414,9
2025 4 1 9 1 28,4 0,0002 1006,07 307,4054 3,39 691,8 0,0163 418,8
2025 4 1 10 1 28,3 0,0001 1006,755 302,9053 2,91 758,6 0,0081 420,1
2025 4 1 11 1 27,7 0,0002 1007,603 297,8973 2,51 746,4 0,0119 422,5
2025 4 1 12 1 27,4 0,0002 1008,254 308,1573 2,61 1514,8 0,0036 420,5
2025 4 1 13 1 27 0,0001 1009,269 334,9832 2,95 3557 0,001 419,6
2025 4 1 14 1 27 0,0001 1009,34 352,875 2,76 733,1 0,0011 419,5
2025 4 1 15 1 27 0,0001 1009,818 8,130041 2,16 704,6 0,0005 416,4
2025 4 1 16 1 26,8 0,0002 1010,078 28,61041 1,81 828,6 0,0001 414,8
2025 4 1 17 1 26,5 0,0002 1009,936 44,99995 2,31 1044,8 0 412,7
2025 4 1 18 1 26,3 0,0002 1009,412 57,52876 1,59 1131,6 0 411,4
2025 4 1 19 1 25,9 0,0002 1008,699 59,0362 1,36 1179,5 0 410,7
2025 4 1 20 1 25,6 0,0002 1008,36 56,30989 1,84 1450,4 0 409,4
2025 4 1 21 1 25,5 0,0002 1008,401 66,37058 2,09 4470,3 0 408,3
2025 4 1 22 1 25,7 0,0002 1008,465 70,70991 2,49 2948,2 0 406,8
2025 4 1 23 1 25,5 0,0002 1009,239 82,2348 2,29 1256,1 0 405,6
2025 4 2 0 1 25,7 0,0002 1009,866 82,87495 2,49 4148,9 0,0001 404,8
2025 4 2 1 1 26,8 0,0002 1010,29 87,27366 2,11 3968,8 0,0012 403,7
2025 4 2 2 1 28,2 0,0002 1010,472 89,99997 1,9 1349,8 0,0008 402,9
2025 4 2 3 1 29 0,0002 1009,933 100,6196 1,69 1092,8 0,0001 401,5
2025 4 2 4 1 30 0,0002 1009,536 108,4349 0,99 1304,2 0,0006 399,9
2025 4 2 5 1 30,7 0,0002 1008,802 153,4349 0,14 1314,8 0,0005 398
2025 4 2 6 1 31,1 0,0002 1008,006 270 0,9 1778,7 0 398,7
2025 4 2 7 1 31,2 0,0002 1007,3 276,009 1,94 4599,7 0,0008 401,2
2025 4 2 8 1 30,7 0,0002 1006,466 278,427 2,86 3671,2 0,0016 403,9
2025 4 2 9 1 30,4 0,0002 1006,989 270 2,9 4607,7 0 407,8
2025 4 2 10 1 28,8 0,0002 1007,413 270 2,1 5859,7 0 411,2
2025 4 2 11 1 28,2 0,0002 1008,236 278,7462 1,34 5967,6 0 413,5
2025 4 2 12 1 27,9 0,0002 1009,153 299,7449 2,04 2822,3 0,0005 425,8
2025 4 2 13 1 27,5 0,0002 1010,025 315 2 1299,2 0,035 426,3
2025 4 2 14 1 27,2 0,0002 1010,58 355,9144 2,06 1265 0,0622 421
2025 4 2 15 1 27 0,0002 1010,812 9,462261 3,54 3227,9 0,0018 417,4
2025 4 2 16 1 26,7 0,0002 1010,965 22,8336 4,41 1902,6 0,0002 415,7
2025 4 2 17 1 26,4 0,0002 1010,769 27,64592 5,51 809,8 0,0001 414,4
2025 4 2 18 1 26,4 0,0002 1010,42 27,64592 5,51 711 0,0006 413,7
2025 4 2 19 1 26,1 0,0002 1009,873 28,81074 5,1 697,2 0,0077 413,4
2025 4 2 20 1 26 0,0002 1009,577 30,46549 3,89 783,9 0,0015 413,2
2025 4 2 21 1 25,6 0,0002 1009,249 33,69002 3,25 1033,3 0,0011 412,9
2025 4 2 22 1 25,6 0,0002 1009,753 41,18588 1,34 1129,3 0,0007 412,3
2025 4 2 23 1 25,6 0,0002 1010,279 101,3099 1,04 688,1 0,0012 411,4
2025 4 2 0 1 25,8 0,0002 1010,858 111,8014 1,16 3447,1 0,0054 407
2025 4 3 1 1 26,7 0,0002 1011,544 105,9454 0,74 4277,2 0 405,3
2025 4 3 2 1 27,9 0,0002 1012,19 77,47116 0,94 5303 0,0005 404,1
2025 4 3 3 1 28,8 0,0002 1011,804 68,19855 1,16 4501,2 0 403,5
2025 4 3 4 1 29,1 0,0002 1011,068 57,99457 1,05 4743,4 0 402,7
2025 4 3 5 1 30 0,0002 1010,186 6,44E-05 0,81 3003,9 0 402,8
2025 4 3 6 1 29,8 0,0002 1009,54 327,2648 2,86 3599 0 404,3
2025 4 3 7 1 29,8 0,0002 1008,642 313,2643 4,26 4547,9 0 406,7
2025 4 3 8 1 29,1 0,0002 1008,013 303,0239 3,69 4523,6 0,0019 410,1
2025 4 3 9 1 28,7 0,0002 1007,724 295,2012 2,34 4489,1 0,0015 414,6
2025 4 3 10 1 27,9 0,0002 1008,291 287,6502 2,69 1654,5 0,0066 415,1
2025 4 3 11 1 27,5 0,0002 1008,667 316,6366 4,94 1700,6 0,0057 418,4
2025 4 3 12 1 27 0,0002 1009,009 341,5651 6,56 4175,1 0,0382 422
2025 4 3 13 1 26,7 0,0002 1009,785 342,3499 5,54 3423,2 0,011 418,4
2025 4 3 14 1 26,3 0,0002 1010,393 345,9638 4,5 3406,8 0,0103 415,6
2025 4 3 15 1 26,4 0,0002 1010,452 355,6014 1,79 3326,8 0,0057 413,9
2025 4 3 16 1 26,1 0,0002 1010,696 39,80552 0,86 5228,7 0,0623 412,5
2025 4 3 17 1 25,8 0,0002 1010,554 75,96372 0,84 4888,8 0,002 410,4
2025 4 3 18 1 25,7 0,0002 1010,138 89,99997 1,1 5894,1 0,0692 409,5
2025 4 3 19 1 25,5 0,0002 1009,565 89,99997 1,1 3793,3 0,0375 409,1
2025 4 3 20 1 25,2 0,0002 1009,473 96,34016 0,91 4969,2 0,0193 408,7
2025 4 3 21 1 25,1 0,0002 1009,351 80,53764 1,24 1221 0,0481 408,7
2025 4 3 22 1 24,9 0,0002 1009,973 68,19855 1,86 1247,2 0,0263 407,9
2025 4 3 23 1 24,9 0,0002 1010,457 72,89723 1,46 738,5 0,0187 407,4
2025 4 3 0 1 25 0,0002 1011,034 89,99997 1,5 1935,2 0,0004 404,5
2025 4 4 1 1 25,9 0,0002 1011,275 108,4349 1,75 857,1 0 404,1
2025 4 4 2 1 27,4 0,0002 1011,629 118,3007 1,79 261 0,0001 403,8
2025 4 4 3 1 28,4 0,0002 1011,232 145,008 1,7 280,5 0 403,7
2025 4 4 4 1 29,1 0,0002 1010,68 198,435 1,84 272,4 0 403,3
2025 4 4 5 1 29,5 0,0002 1009,902 233,1301 3,04 368,6 0 403,3
2025 4 4 6 1 29,5 0,0002 1009,335 250,0169 2,84 776,4 0 404,5
2025 4 4 7 1 29,5 0,0002 1006,962 252,1213 4,1 610,8 0,0001 407,3
2025 4 4 8 1 28,9 0,0002 1007,733 255,9638 2,76 518,2 0,0052 411,6
2025 4 4 9 1 28,3 0,0002 1007,195 270 2,4 747,3 0,014 416,6
2025 4 4 10 1 28 0,0002 1007,535 249,1456 2,74 795,6 0,0232 420,3
2025 4 4 11 1 27,6 0,0002 1008,267 250,3462 1,65 875,3 0,0107 423,3
2025 4 4 12 1 27,3 0,0002 1009,122 233,1301 2,01 5502,3 0,0976 424,4
2025 4 4 13 1 27,2 0,0002 1010,202 228,3665 1,54 5438,2 0,0494 421,4
2025 4 4 14 1 27 0,0002 1010,627 203,9625 1,21 1790,6 0,116 421,1
2025 4 4 15 1 26,6 0,0002 1010,708 180 1,21 856,5 0,2441 416
2025 4 4 16 1 26,5 0,0002 1010,621 156,0375 1,21 1032,5 0,0126 414,6
2025 4 4 17 1 26,3 0,0002 1010,209 168,6901 1,2 2005,9 0,0011 412,9
2025 4 4 18 1 25,9 0,0001 1009,38 198,435 1,11 2175,1 0,0001 412,4
2025 4 4 19 1 25,7 0,0001 1008,928 165,9638 0,26 1460,6 0,001 412
2025 4 4 20 1 25,4 0,0001 1008,605 75,96372 0,41 867,1 0,01 411,9
2025 4 4 21 1 25,3 0,0001 1008,801 53,13006 0,49 921,4 0,0047 411,8
2025 4 4 22 1 25,3 0,0001 1008,997 14,03618 0,84 571,5 0,0046 411,4
2025 4 4 23 1 25,3 0,0002 1009,735 18,43489 0,56 463 0,0614 410,6
2025 4 4 0 1 25,7 0,0002 1010,222 14,03618 0,26 734,3 0,02 411,6
2025 4 5 1 1 27 0,0002 1010,953 6,44E-05 0,04 494,3 0,0785 410,9
2025 4 5 2 1 28,2 0,0002 1011,031 329,0363 0,55 361 0,0754 410,8
2025 4 5 3 1 28,9 0,0002 1010,729 320,1945 0,86 372,4 0,0751 409,5
2025 4 5 4 1 29,2 0,0002 1010,145 291,0376 1,55 234,1 0,1207 408,2
2025 4 5 5 1 29,6 0,0002 1009,106 284,0363 2,76 303,4 0,0256 407,6
2025 4 5 6 1 28,3 0,0002 1008,624 275,7106 3,09 245,2 0,0144 410
2025 4 5 7 1 28,5 0,0002 1007,691 270 3 277,8 0,0368 413,7
2025 4 5 8 1 27,9 0,0002 1007,303 261,2539 2,76 372,2 0,0442 418,9
2025 4 5 9 1 27,8 0,0002 1007,137 278,1301 2,19 450,6 0,522 422,2
2025 4 5 10 1 27,6 0,0002 1007,671 260,2176 3,15 518,5 0,2696 423,1
2025 4 5 11 1 27 0,0002 1008,418 278,1301 1,44 546,7 0,4056 423,9
2025 4 5 12 1 26,8 0,0002 1008,975 280,3049 1,14 626,9 0,4177 424,1
2025 4 5 13 1 26,7 0,0002 1009,794 270 0,7 508,6 0,05 419,5
2025 4 5 14 1 26,7 0,0002 1010,205 225 0,56 510,9 0,0383 418,7
2025 4 5 15 1 26,3 0,0002 1010,134 180 0,16 515,7 0,2127 418,2
2025 4 5 16 1 26,3 0,0002 1009,977 123,69 0,34 521 0,1667 416,2
2025 4 5 17 1 26 0,0001 1009,707 98,13007 0,71 519,2 0,043 414,6
2025 4 5 18 1 25,6 0,0001 1009,399 89,99997 0,9 520,3 0,0263 414
2025 4 5 19 1 25,2 0,0001 1008,95 44,99995 0,39 483,9 0,0267 413,4
2025 4 5 20 1 24,9 0,0001 1008,767 189,4623 0,46 610,1 0,0126 413,7
2025 4 5 21 1 24,9 0,0001 1008,748 135 1,19 593,4 0,0044 413
2025 4 5 22 1 24,9 0,0002 1008,645 101,3099 1,59 547,9 0,0218 412,7
2025 4 5 23 1 24,9 0,0002 1009,388 110,556 1,96 481,4 0,0598 411,8
2025 4 5 0 1 25 0,0002 1010,084 115,2011 2,34 268,9 0,3036 411,9
2025 4 6 1 1 25,8 0,0002 1010,77 120,4655 2,7 351,3 0,3899 410
2025 4 6 2 1 27 0,0002 1011,083 118,0725 2,14 299,8 0,3869 408,1
2025 4 6 3 1 28,1 0,0002 1011,027 124,992 1,49 179,9 0,3166 406,9
2025 4 6 4 1 28,9 0,0002 1010,382 135 0,56 192,2 0,2125 406,8
2025 4 6 5 1 29,4 0,0002 1009,528 270 0,1 160,5 0,1619 406,7
2025 4 6 6 1 28,7 0,0002 1008,56 261,8699 0,71 78,6 0,0884 407,5
2025 4 6 7 1 28,1 0,0002 1007,349 270 1,7 83,7 0,0794 409,9
2025 4 6 8 1 27,7 0,0002 1007,308 250,3462 1,65 142 0,05 413,7
2025 4 6 9 1 27 0,0002 1007,497 222,5105 2,54 338,3 0,0735 418,4
2025 4 6 10 1 27,1 0,0002 1008,029 247,3802 1,45 345,6 0,2462 422
2025 4 6 11 1 26,5 0,0002 1008,551 123,69 0,34 338,1 0,9711 418,7
2025 4 6 12 1 26,3 0,0002 1009,499 113,1986 0,79 1361,9 0,3513 423,1
2025 4 6 13 1 26,1 0,0002 1010,164 101,3099 1,04 830,1 0,7782 421,2
2025 4 6 14 1 26 0,0003 1010,954 104,0362 1,29 555,3 0,4369 418,8
2025 4 6 15 1 25,9 0,0003 1011,207 101,3099 1,59 603,6 0,069 415,4
2025 4 6 16 1 25,8 0,0003 1011,204 96,34016 1,84 806,8 0,0528 413,9
2025 4 6 17 1 25,6 0,0002 1010,745 78,69003 2,16 2196,6 0,0556 413,4
2025 4 6 18 1 25,5 0,0002 1010,243 70,70991 2,49 3012,6 0,0499 413,2
2025 4 6 19 1 25,4 0,0002 1009,557 68,19855 2,64 1901,7 0,012 412,3
2025 4 6 20 1 25,3 0,0002 1009,66 69,7751 2,39 1262,7 0,0111 411,8
2025 4 6 21 1 25,1 0,0002 1009,836 63,43491 2,24 619,6 0,0109 411,5
2025 4 6 22 1 24,8 0,0002 1009,709 67,61982 2,19 463,1 0,0503 411,1
2025 4 6 23 1 24,7 0,0002 1010,572 93,5763 1,61 168,3 0,0327 410,2
2025 4 6 0 1 24,8 0,0002 1011,284 105,9454 1,56 1957,6 0,0269 407,6
2025 4 6 1 1 25,6 0,0002 1011,955 112,6198 1,45 1676,7 0,0376 406,4
2025 4 6 2 1 27 0,0002 1012,119 123,69 1,84 3576,9 0,0429 405,5
2025 4 6 3 1 28,3 0,0002 1011,847 145,3048 2,59 177 0,0296 404,9
2025 4 6 4 1 29,2 0,0002 1011,177 176,6335 2,99 85,1 0,0203 404,3
2025 4 6 5 1 29,8 0,0002 1010,001 203,6294 3,26 91,8 0,0168 403,9
2025 4 6 6 1 29,8 0,0002 1009,408 223,2643 4,49 160,6 0,0243 405,2
2025 4 6 7 1 28,7 0,0002 1008,427 225 6 281,1 0,0217 408,6
2025 4 6 8 1 27,7 0,0002 1008,164 215,3112 7,46 434,7 0,0102 413,1
2025 4 6 9 1 28,1 0,0002 1008,188 226,7357 4,26 478,7 0,0205 417,9
2025 4 6 10 1 27,4 0,0002 1008,469 231,8428 2,61 509,6 0,0208 421,9
2025 4 6 11 1 27,4 0,0002 1009,029 243,435 0,96 684,2 0,0259 425,3
2025 4 6 12 1 26,9 0,0002 1010,149 284,0363 0,84 395,5 0,7993 424,1
2025 4 6 13 1 26,6 0,0002 1011,132 296,5651 1,56 292,8 0,234 419,3
2025 4 6 14 1 26,4 0,0002 1011,485 273,5764 1,61 460,2 0,0467 417,6
2025 4 6 15 1 26,1 0,0002 1012,008 262,875 1,64 487,1 0,0252 417,3
2025 4 6 16 1 26,1 0,0002 1011,854 270 1,5 527,2 0,0116 417
2025 4 6 17 1 25,7 0,0002 1011,227 253,6105 1,95 499,7 0,0566 415,9
2025 4 6 18 1 25,4 0,0002 1010,797 250,71 2,49 461,1 0,048 414,6
2025 4 6 19 1 25,2 0,0002 1010,454 262,4054 1,54 493,9 0,094 413,8
2025 4 6 20 1 25 0,0002 1010,133 250,0169 1,26 530,2 0,069 413,4
2025 4 6 21 1 24,7 0,0002 1010,81 215,5377 2,96 457,4 0,009 412,9
2025 4 6 22 1 24,7 0,0002 1010,858 230,1944 4,05 269,2 0,0633 412,3
2025 4 6 23 1 24,9 0,0002 1011,54 226,975 3,46 218,6 0,1506 411,1
2025 4 6 0 1 25,1 0,0002 1012,458 208,6105 1,81 334,4 0,1962 411,5
2025 4 7 1 1 25,8 0,0002 1013,074 213,6901 1,41 346,2 0,245 410,3
2025 4 7 2 1 26,9 0,0002 1013,711 239,0363 2,31 366,6 0,2181 408,9
2025 4 7 3 1 27,8 0,0002 1013,763 251,5651 2,16 394,4 0,1876 408,1
2025 4 7 4 1 27,6 0,0002 1012,827 267,3975 2,21 320,9 0,1546 407,4
2025 4 7 5 1 26,9 0,0002 1011,599 274,0857 2,84 763,1 0,1003 407,5
2025 4 7 6 1 26,1 0,0002 1011,265 258,6901 3,36 241,5 0,0354 408,5
2025 4 7 7 1 26,8 0,0002 1010,116 260,2176 3,15 324,5 0,0214 410,6
2025 4 7 8 1 27,2 0,0002 1009,621 279,4624 2,56 371,6 0,0311 415,2
2025 4 7 9 1 27,4 0,0002 1009,345 291,8014 2,64 339,4 0,1249 419,1
2025 4 7 10 1 26,8 0,0002 1009,226 302,9053 2,91 396,9 0,1881 420,7
2025 4 7 11 1 26,7 0,0002 1009,4 306,0274 1,74 268,9 0,4212 420,9
2025 4 7 12 1 26,6 0,0002 1009,837 303,6901 0,76 299,9 0,6143 415,7
2025 4 7 13 1 26,3 0,0003 1011,086 89,99997 0,9 267,1 0,2429 412,6
2025 4 7 14 1 25,8 0,0003 1011,073 89,99997 1,5 276,2 0,1569 413,4
2025 4 7 15 1 25,7 0,0002 1011,488 60,6422 2,41 361,6 0,0283 412,1
2025 4 7 16 1 25,4 0,0002 1011,801 64,98307 1,99 621,5 0,0392 412,6
2025 4 7 17 1 25,3 0,0002 1011,165 73,61042 1,95 534,2 0,0269 411,5
2025 4 7 18 1 25,1 0,0002 1011,125 75,2564 2,15 682,6 0,0227 411,8
2025 4 7 19 1 25 0,0002 1010,184 74,47585 2,05 1522 0,0757 411,7
2025 4 7 20 1 24,7 0,0002 1009,836 67,61982 2,19 3146,5 0,0555 411,3
2025 4 7 21 1 24,8 0,0002 1009,778 66,37058 2,09 1201,5 0,1075 410,3
2025 4 7 22 1 24,5 0,0001 1010,02 73,30072 2,36 343,9 0,1585 409,6
2025 4 7 23 1 24,4 0,0001 1010,713 80,53764 2,56 98,5 0,1723 409
2025 4 7 0 1 24,6 0,0001 1011,477 76,42953 3,39 106,9 0,1882 407,2
2025 4 8 1 1 25,4 0,0001 1012,058 78,69003 3,36 107,1 0,1374 406,2
2025 4 8 2 1 26,8 0,0001 1012,543 77,47116 3,06 55,9 0,0622 405,5
2025 4 8 3 1 27,8 0,0001 1012,525 77,00535 2,96 51 0,0342 404,9
2025 4 8 4 1 28,6 0,0002 1011,868 79,21567 2,26 50,9 0,0037 404,3
2025 4 8 5 1 29,6 0,0002 1010,552 79,38031 1,69 74 0,0002 403,8
2025 4 8 6 1 29,8 0,0002 1009,486 77,90521 1,49 171,3 0,0026 404,6
2025 4 8 7 1 29,7 0,0002 1008,27 74,05457 1,56 323,1 0,005 407,8
2025 4 8 8 1 30 0,0002 1007,636 79,38031 1,69 507,9 0,0217 412,2
2025 4 8 9 1 29,2 0,0002 1007,303 79,99198 1,79 725,8 0,0234 416,7
2025 4 8 10 1 28 0,0002 1007,148 101,3099 1,04 1119 0,0328 421,3
2025 4 8 11 1 27,4 0,0002 1007,409 116,565 0,96 876,6 0,0082 423,9
2025 4 8 12 1 26,9 0,0002 1008,501 71,56501 0,99 709,5 0,0047 415
2025 4 8 13 1 26,4 0,0002 1009,35 29,05455 1,31 755,3 0,0049 415,4
2025 4 8 14 1 26,2 0,0002 1009,581 9,462261 1,64 650,6 0,0062 415,4
2025 4 8 15 1 25,9 0,0002 1010,005 10,61959 2,86 1221 0,0078 413,5
2025 4 8 16 1 25,8 0,0002 1010,365 23,62932 3,26 1478,2 0,0056 412,1
2025 4 8 17 1 25,6 0,0002 1009,841 42,87885 3,26 2000 0,0162 409,4
2025 4 8 18 1 25,5 0,0002 1009,169 63,43491 2,24 3973,3 0,0015 407,5
2025 4 8 19 1 25,6 0,0002 1008,581 77,90521 1,49 6231,7 0,0016 406,1
2025 4 8 20 1 25,4 0,0002 1008,077 116,565 1,25 6400,8 0,0155 404,9
2025 4 8 21 1 25,1 0,0002 1008,099 108,4349 1,36 5640,9 0,0066 404
2025 4 8 22 1 25,8 0,0002 1008,381 60,25508 0,86 4881,4 0,0081 403,1
2025 4 8 23 1 25,5 0,0002 1009,07 89,99997 0,2 2455,4 0,0024 402
2025 4 8 0 1 25,6 0,0002 1009,661 180 0,64 3822,8 0,005 406
2025 4 9 1 1 26,2 0,0002 1010,272 215,5377 0,99 3826 0,0154 405,1
2025 4 9 2 1 27,4 0,0002 1010,654 245,5561 1,35 3946,1 0,0196 404,2
2025 4 9 3 1 28,2 0,0002 1010,325 235,008 1,49 4035,4 0,0257 404,2
2025 4 9 4 1 29 0,0002 1009,373 253,3008 1,09 3974,2 0,0963 404,2
2025 4 9 5 1 29,7 0,0002 1008,147 278,7462 1,34 4336,3 0,0512 404,2
2025 4 9 6 1 29,9 0,0002 1006,95 270 2 4999 0,0056 404,7
2025 4 9 7 1 30 0,0002 1006,19 257,9053 3,16 4556,7 0,0355 406,4
2025 4 9 8 1 29,3 0,0002 1005,915 250,9744 3,9 5115,8 0,0069 409
2025 4 9 9 1 28,3 0,0002 1005,702 254,9315 3,09 1381,7 0,0035 413,1
2025 4 9 10 1 27,5 0,0002 1005,644 257,9053 1,49 894,3 0,0067 417
2025 4 9 11 1 27,3 0,0002 1006,334 250,0169 1,26 721,4 0,0124 420
2025 4 9 12 1 26,9 0,0002 1007,504 279,4624 1,24 636,1 0,054 425,8
2025 4 9 13 1 26,6 0,0002 1008,569 288,435 0,99 433,9 0,3971 426,1
2025 4 9 14 1 26,5 0,0002 1009,69 315 0,39 351,5 0,6803 421,6
2025 4 9 15 1 26,2 0,0002 1009,784 341,5651 0,19 560,2 0,0163 418,1
2025 4 9 16 1 26 0,0001 1009,783 11,30987 0,35 488 0,0249 416,3
2025 4 9 17 1 25,8 0,0001 1008,877 38,65976 0,65 577,4 0,0225 414,2
2025 4 9 18 1 25,5 0,0001 1008,365 18,43489 0,19 522,5 0,0109 413,7
2025 4 9 19 1 25,7 0,0001 1007,618 71,56501 0,64 444,5 0,0086 413,1
2025 4 9 20 1 25,4 0,0002 1006,996 68,19855 1,16 421,7 0,0237 412,7
2025 4 9 21 1 25,3 0,0002 1007,296 63,43491 1,56 440,4 0,0485 412,9
2025 4 9 22 1 25,8 0,0002 1007,438 79,38031 1,69 426,4 0,0554 412,4
2025 4 9 23 1 25,8 0,0002 1008,115 86,82014 1,81 445,2 0,0054 411,1
2025 4 9 0 1 26,1 0,0002 1008,724 66,37058 2,09 2362,7 0,0184 411,1
2025 4 10 1 1 27 0,0002 1009,545 56,30989 1,84 4793,1 0,0256 410,2
2025 4 10 2 1 28,2 0,0002 1009,994 63,43491 1,25 2608,6 0,0207 409
2025 4 10 3 1 28,9 0,0002 1009,973 60,94535 1,15 3955,4 0,0122 408,2
2025 4 10 4 1 29,5 0,0002 1009,315 54,46228 0,95 3762,8 0,0053 407,2
2025 4 10 5 1 30,3 0,0002 1008,379 20,55599 0,94 174,4 0,0078 407,3
2025 4 10 6 1 30,3 0,0002 1007,489 347,9053 2,26 217,4 0,025 408,3
2025 4 10 7 1 30,1 0,0002 1006,623 332,2415 4,61 227,7 0,0082 410,9
2025 4 10 8 1 29,8 0,0002 1005,929 328,3926 8,36 531,6 0,0032 413
2025 4 10 9 1 28,9 0,0002 1005,893 329,0363 10,8 751,5 0,0112 414,8
2025 4 10 10 1 27,5 0,0002 1006,947 328,1726 10,21 1380,6 0,0038 418
2025 4 10 11 1 27,2 0,0002 1007,742 330,0184 8,26 3221,9 0,002 419,7
2025 4 10 12 1 27,1 0,0002 1008,564 335,7723 4,9 918,2 0,0119 420,1
2025 4 10 13 1 27 0,0002 1009,36 337,6199 3,59 781 0,0219 420
2025 4 10 14 1 26,8 0,0002 1010,197 344,0547 2,36 819,8 0,0446 417,7
2025 4 10 15 1 26,6 0,0003 1010,16 6,44E-05 0,81 1534,2 0,0038 415,2
2025 4 10 16 1 26,4 0,0002 1010,299 21,80135 1,4 1206,7 0,0007 413,1
2025 4 10 17 1 26,3 0,0002 1010,018 32,47114 1,91 1210,5 0 411,1
2025 4 10 18 1 25,9 0,0002 1009,249 36,02732 2,01 1463,4 0 410
2025 4 10 19 1 25,6 0,0002 1008,743 32,73517 2,86 1637 0 409
2025 4 10 20 1 25,4 0,0001 1008,302 37,40531 4,19 1856,4 0 408,1
2025 4 10 21 1 25,3 0,0002 1008,359 37,40531 4,19 1862,7 0 407,7
2025 4 10 22 1 25,2 0,0002 1008,513 29,05455 4,24 2208,9 0 407,3
2025 4 10 23 1 25,2 0,0002 1009,166 39,80552 2,44 2477,2 0 406,5
2025 4 10 0 1 25,6 0,0002 1009,501 44,99995 0,96 2629,1 0,0003 405,3
2025 4 11 1 1 26,8 0,0002 1010,066 15,25506 1,51 2811,4 0,0008 404,8
2025 4 11 2 1 28,2 0,0002 1010,039 9,462261 1,64 2975,2 0,0029 403,9
2025 4 11 3 1 29,2 0,0002 1009,958 354,8056 1,31 6124,3 0,0002 402,8
2025 4 11 4 1 29,9 0,0002 1009,47 315 1,19 5540,3 0,0002 402,1
2025 4 11 5 1 30,5 0,0002 1008,554 287,3541 1,85 4881 0 401,5
2025 4 11 6 1 30,6 0,0002 1007,932 289,179 2,94 2951,3 0 404,1
2025 4 11 7 1 30,6 0,0002 1006,935 288,435 3,51 3870,2 0 408,6
2025 4 11 8 1 30 0,0002 1006,201 295,7694 4,86 5314,6 0 413
2025 4 11 9 1 29,2 0,0002 1006,149 303,0239 3,69 3955,4 0 417,7
2025 4 11 10 1 28,5 0,0002 1006,173 304,6952 2,11 1199,2 0,0005 422,1
2025 4 11 11 1 28,3 0,0002 1006,806 315 3,75 965,2 0,0059 425,6
2025 4 11 12 1 28 0,0002 1008,264 315 3,36 1081,4 0,0093 428,2
2025 4 11 13 1 27,7 0,0002 1009,444 321,8428 3,06 2787,7 0,3765 428,3
2025 4 11 14 1 27,4 0,0002 1009,965 292,6199 1,45 981,2 0,1007 424,1
2025 4 11 15 1 27,3 0,0002 1010,547 291,0376 1,55 945,5 0,0022 421,3
2025 4 11 16 1 27 0,0002 1010,673 300,2565 1,69 2564,9 0 419,2
2025 4 11 17 1 26,5 0,0002 1009,919 302,4712 1,59 1778,1 0 417,6
2025 4 11 18 1 26,1 0,0002 1009,137 320,7106 2,11 2082,1 0,0001 417,1
2025 4 11 19 1 25,7 0,0002 1008,595 323,9727 2,01 1979,4 0,0077 417
2025 4 11 20 1 25,4 0,0001 1008,174 305,5377 0,95 941,3 0,0216 417
2025 4 11 21 1 25,1 0,0001 1008,366 89,99997 0,2 707,4 0,018 416,8
2025 4 11 22 1 25,6 0,0001 1008,68 303,6901 0,34 437,9 0,0525 416,2
2025 4 11 23 1 25,4 0,0002 1009,646 44,99995 0,75 413,9 0,1131 414,6
2025 4 11 0 1 25,7 0,0002 1010,1 55,00794 1,49 535,7 0,086 417
2025 4 12 1 1 26,6 0,0001 1011,015 53,13006 2,01 373,6 0,2942 415,7
2025 4 12 2 1 27,9 0,0002 1011,312 53,97258 1,74 306,1 0,2602 415,1
2025 4 12 3 1 28,7 0,0002 1011,146 44,99995 0,96 260,7 0,0818 414,4
2025 4 12 4 1 29,1 0,0002 1010,158 309,8056 0,85 329 0,0906 413,8
2025 4 12 5 1 29,5 0,0002 1009,476 277,5947 1,54 329,8 0,1372 412,4
2025 4 12 6 1 28,4 0,0002 1008,783 265,2364 1,21 1156,1 0,1 414
2025 4 12 7 1 28,3 0,0002 1007,689 270 0,6 1341,6 0,034 417,1
2025 4 12 8 1 27,9 0,0002 1007,328 26,565 0,36 527,7 0,0371 420
2025 4 12 9 1 27,9 0,0002 1007,323 270 0,2 640,4 0,0624 423,3
2025 4 12 10 1 26 0,0003 1008,433 241,1892 3,21 429,1 0,0748 425,4
2025 4 12 11 1 25,6 0,0003 1008,48 247,0679 3,81 285,4 0,691 426,9
2025 4 12 12 1 25,6 0,0003 1009,364 253,0725 2,79 291,5 0,4754 418,5
2025 4 12 13 1 25,5 0,0003 1009,68 261,8699 2,19 220,1 0,2178 415,9
2025 4 12 14 1 25,3 0,0003 1010,291 258,1114 2,06 173,2 0,2216 415,4
2025 4 12 15 1 25,3 0,0003 1011,02 263,6598 0,91 222,2 0,3472 414,3
2025 4 12 16 1 25,3 0,0003 1010,584 251,5651 0,99 753,6 0,2657 413,4
2025 4 12 17 1 25,3 0,0002 1010,441 225 1,19 1085,5 0,2588 412,5
2025 4 12 18 1 25,3 0,0002 1009,847 204,444 1,71 1068,2 0,2904 412,4
2025 4 12 19 1 25 0,0002 1009,129 190,008 3,19 1821,1 0,177 412,4
2025 4 12 20 1 24,9 0,0002 1008,892 194,7436 4,11 3103,7 0,1158 412,2
2025 4 12 21 1 24,8 0,0002 1008,412 206,5651 5 1855,7 0,1211 411,4
2025 4 12 22 1 24,9 0,0002 1009,024 222,5105 2,54 554,3 0,1403 410,9
2025 4 12 23 1 24,9 0,0002 1009,744 216,8699 1,24 241,5 0,1497 410,7
2025 4 12 0 1 25,2 0,0002 1010,866 180 0,81 333,1 0,2182 410,8
2025 4 13 1 1 25,7 0,0002 1011,257 145,008 1,7 194,1 0,2683 410,1
2025 4 13 2 1 26,7 0,0002 1011,682 128,6598 1,64 164,4 0,2395 409,6
2025 4 13 3 1 26,7 0,0002 1011,264 147,9946 1,14 348,4 0,1505 409,4
2025 4 13 4 1 26,8 0,0002 1010,744 206,5651 2,04 233,7 0,1221 409,4
2025 4 13 5 1 27,3 0,0002 1009,975 218,1572 3,06 197 0,1746 409,5
2025 4 13 6 1 26,9 0,0002 1008,946 238,3925 5,16 159,1 0,1599 410,6
2025 4 13 7 1 27,4 0,0002 1008,097 235,1247 8,59 164,6 0,2832 412,9
2025 4 13 8 1 27 0,0002 1008 242,1028 6,64 228,3 0,7797 417,5
2025 4 13 9 1 26,8 0,0002 1007,708 266,0548 2,94 173,7 1,1443 414,9
2025 4 13 10 1 26 0,0002 1008,521 250,821 7,16 124,3 0,7444 416,1
2025 4 13 11 1 26 0,0002 1008,712 260,789 4,06 172,8 0,6643 418,5
2025 4 13 12 1 25,9 0,0003 1009,233 265,9144 2,84 175 1,1292 418,4
2025 4 13 13 1 25,8 0,0003 1009,93 267,1376 2,01 353,4 1,2927 415,7
2025 4 13 14 1 25,7 0,0003 1010,365 270 1,8 679,8 1,205 414,5
2025 4 13 15 1 25,8 0,0002 1010,329 250,56 2,06 554,1 1,0175 412,5
2025 4 13 16 1 25,8 0,0002 1010,801 219,2894 2,11 724,6 0,5729 410,4
2025 4 13 17 1 25,7 0,0002 1010,1 227,7263 2,1 3430,2 0,2123 408,5
2025 4 13 18 1 25,7 0,0002 1009,946 206,5651 1,5 4835,5 0,0852 407,6
2025 4 13 19 1 25,4 0,0002 1009,048 141,3402 0,65 4699,5 0,0479 406,8
2025 4 13 20 1 25,5 0,0001 1008,864 119,0546 1,15 4832,5 0,0142 405,9
2025 4 13 21 1 25,4 0,0001 1008,853 112,6198 1,45 5155,8 0,0084 405,4
2025 4 13 22 1 24,9 0,0001 1009,03 83,15719 2,59 4784,1 0,0017 404,8
2025 4 13 23 1 24,8 0,0002 1009,538 83,88446 2,89 4298,5 0,0011 404
2025 4 14 0 1 25,2 0,0001 1009,902 88,02503 2,91 3972,9 0,0171 405,2
2025 4 14 1 1 25,8 0,0001 1010,566 96,34016 2,79 2325,5 0,0564 404,8
2025 4 14 2 1 26,8 0,0002 1010,357 98,74613 2,76 2424,9 0,0506 404,3
2025 4 14 3 1 27,6 0,0002 1010,145 100,7843 2,26 1546,8 0,0457 403,2
2025 4 14 4 1 28,1 0,0002 1009,815 115,0169 1,99 4901,7 0,0116 402,8
2025 4 14 5 1 28,7 0,0002 1008,912 135 1,71 2926,8 0,0465 402,3
2025 4 14 6 1 29,4 0,0002 1008,39 184,0856 2,06 2954,6 0 403,8
2025 4 14 7 1 30,1 0,0002 1007,503 209,3578 3,46 2982,2 0,0059 405,3
2025 4 14 8 1 30 0,0002 1006,731 222,7094 2,89 3211,7 0 406,9
2025 4 14 9 1 30 0,0002 1006,527 241,3896 1,46 4498 0 411,1
2025 4 14 10 1 28,9 0,0002 1007,5 260,5377 1,24 3288,1 0,0007 413,5
2025 4 14 11 1 28,3 0,0003 1008,042 277,1251 0,81 1753,2 0,0065 415,5
2025 4 14 12 1 28,2 0,0003 1008,521 279,4624 1,24 1305,1 0,0015 421,8
2025 4 14 13 1 27,7 0,0003 1009,058 260,5377 1,24 3179,5 0,01 422,9
2025 4 14 14 1 27,5 0,0003 1009,628 243,435 1,25 3658,7 0,0022 421,3
2025 4 14 15 1 27,1 0,0002 1009,909 265,2364 1,21 3655,6 0,0024 419,5
2025 4 14 16 1 27 0,0002 1009,614 279,4624 1,24 4916,7 0,0017 417,8
2025 4 14 17 1 26,9 0,0002 1009,209 280,3049 1,14 4421,5 0,0006 415,5
2025 4 14 18 1 26,5 0,0002 1008,903 270 0,3 4486,9 0 414,4
2025 4 14 19 1 26,3 0,0002 1008,38 89,99997 0,1 1266,7 0,0046 414
2025 4 14 20 1 26,1 0,0001 1007,986 123,69 0,34 1189,3 0,0082 413,3
2025 4 14 21 1 25,9 0,0001 1008,115 101,3099 0,51 1610,9 0,0017 412,6
2025 4 14 22 1 26 0,0002 1008,458 59,0362 0,59 1473,4 0,0163 411,8
2025 4 14 23 1 25,9 0,0002 1008,866 66,80137 0,79 539,4 0,0058 411,8
2025 4 14 0 1 26,3 0,0002 1009,122 74,05457 0,74 2190,9 0 409,8
2025 4 15 1 1 27,3 0,0002 1009,753 116,565 0,69 663 0,0001 409,5
2025 4 15 2 1 28,6 0,0002 1009,889 168,6901 0,35 130,7 0,0001 409,2
2025 4 15 3 1 29,7 0,0002 1009,697 225 1,71 130,7 0,0089 409,1
2025 4 15 4 1 30,2 0,0002 1009,189 240,6423 2,41 163 0,0019 409,4
2025 4 15 5 1 30,8 0,0002 1008,452 257,7353 2,55 184,6 0,0115 409,7
2025 4 15 6 1 30,9 0,0002 1007,72 267,7974 2,61 332,8 0,0427 412,1
2025 4 15 7 1 30,9 0,0002 1006,923 273,9452 2,94 639,1 0,0638 417
2025 4 15 8 1 29,3 0,0002 1005,943 275,1945 3,39 732,6 0,0136 422,2
2025 4 15 9 1 29,2 0,0002 1005,914 271,6366 3,51 832 0,017 424,7
2025 4 15 10 1 28,8 0,0002 1007,251 283,627 3,94 935,7 0,0119 426,1
2025 4 15 11 1 28,3 0,0003 1007,814 290,7723 4,11 1316 0,0094 427,7
2025 4 15 12 1 28,1 0,0003 1008,59 298,3008 4,56 2816,2 0,0049 427,5
2025 4 15 13 1 27,9 0,0003 1009,223 299,7449 3,54 2671,3 0,0123 426,6
2025 4 15 14 1 27,9 0,0002 1009,736 312,879 3,09 2645,4 0,017 423,2
2025 4 15 15 1 27,3 0,0002 1009,9 319,3988 3,16 1269,3 0,0009 422,2
2025 4 15 16 1 27,1 0,0002 1010,145 341,5651 3,84 1079,2 0 421
2025 4 15 17 1 26,9 0,0002 1009,763 7,124955 6,06 983,3 0,0274 419,3
2025 4 15 18 1 26,7 0,0001 1009,369 12,26471 5,79 955,9 0,0004 418,5
2025 4 15 19 1 26,6 0,0002 1008,967 22,61981 6,76 880,7 0,0269 418,3
2025 4 15 20 1 26,5 0,0002 1008,651 34,82444 6,89 839,2 0,0061 417,9
2025 4 15 21 1 26,3 0,0002 1008,391 46,46875 5,61 777,6 0,0148 417,7
2025 4 15 22 1 25,9 0,0002 1008,768 33,69002 5,81 635 0,0238 417,5
2025 4 15 23 1 25,5 0,0002 1009,221 46,73566 4,26 2489,4 0,1231 416,9
2025 4 15 0 1 25,6 0,0002 1009,786 50,52749 3,66 3057,2 0,0779 415,2
2025 4 16 1 1 26,3 0,0002 1010,508 52,12497 3,76 1915,1 0,1374 414,1
2025 4 16 2 1 27,6 0,0002 1010,795 44,99995 3,75 2241,7 0,2181 413,1
2025 4 16 3 1 28,3 0,0002 1010,51 20,55599 3,16 3331,8 0,1706 411,7
2025 4 16 4 1 29 0,0002 1010,548 342,8973 2,09 783,1 0,1245 410,7
2025 4 16 5 1 29,2 0,0002 1009,813 304,9921 3,96 472,9 0,1024 410,1
2025 4 16 6 1 28,3 0,0002 1008,949 304,5923 6,9 705,1 0,0561 411,3
2025 4 16 7 1 28,1 0,0002 1007,884 315 12,71 376,8 0,0363 414,4
2025 4 16 8 1 28,2 0,0002 1007,499 320,7106 13,59 445,8 0,0239 418,5
2025 4 16 9 1 27,9 0,0002 1007,299 322,8153 10,61 787 0,0835 420,9
2025 4 16 10 1 27,1 0,0002 1007,96 300,2565 4,36 418,5 0,1056 424,4
2025 4 16 11 1 27 0,0002 1008,982 329,0363 3,15 406,1 0,2146 423,4
2025 4 16 12 1 27 0,0003 1009,632 327,9947 3,56 448,2 0,1533 417,9
2025 4 16 13 1 27 0,0003 1010,01 325,4915 3,66 249,5 0,0698 417,6
2025 4 16 14 1 26,9 0,0003 1010,247 331,6993 2,39 378,2 0,1175 419,4
2025 4 16 15 1 26,5 0,0002 1010,377 318,3665 1,61 437,2 0,1604 418,9
2025 4 16 16 1 26,4 0,0002 1010,193 318,8141 1,34 393,2 0,1382 418,3
2025 4 16 17 1 26,3 0,0002 1009,475 320,1945 0,86 419,7 0,0259 418,1
2025 4 16 18 1 26,1 0,0002 1008,821 11,30987 0,35 470,4 0,0075 417,6
2025 4 16 19 1 26 0,0002 1008,096 73,30072 1,09 780,5 0,0001 416,3
2025 4 16 20 1 25,7 0,0002 1008,017 104,0362 1,76 1239,7 0 413,8
2025 4 16 21 1 25,7 0,0002 1008,034 116,565 2,24 4398,3 0 411,2
2025 4 16 22 1 24,9 0,0002 1008,349 102,5288 1,96 4831,4 0 409,5
2025 4 16 23 1 24,6 0,0002 1008,757 89,99997 1,7 2417 0 408,2
2025 4 16 0 1 24,8 0,0002 1009,554 76,75944 1,86 4319,7 0,0599 393,7
2025 4 17 1 1 25,6 0,0002 1010,066 81,4692 2,09 4471,2 0,0159 392,6
2025 4 17 2 1 26,9 0,0002 1010,715 75,96372 2,25 2725,5 0,0055 392,3
2025 4 17 3 1 28,2 0,0002 1010,52 83,29013 1,74 2189,5 0,0018 392,1
2025 4 17 4 1 29,1 0,0002 1010,089 59,74352 1,69 2153,9 0,0003 392,1
2025 4 17 5 1 30,3 0,0002 1009,151 36,86985 1,24 2419,3 0,0031 391,7
2025 4 17 6 1 30,9 0,0002 1008,047 338,1986 0,45 2131,8 0 393,5
2025 4 17 7 1 31 0,0002 1006,966 285,2552 1,19 2842,5 0 397,2
2025 4 17 8 1 31,2 0,0003 1006,501 278,1301 1,44 3026,6 0 402,7
2025 4 17 9 1 30,4 0,0003 1006,409 270 1,4 3043,9 0 408,8
2025 4 17 10 1 29,4 0,0002 1006,757 225 0,96 7443,5 0,0004 412,1
2025 4 17 11 1 28,8 0,0002 1006,942 198,435 2,75 2714,9 0,0001 416,7
2025 4 17 12 1 28,4 0,0003 1007,444 203,6294 3,26 2284,5 0,0031 408,1
2025 4 17 13 1 28 0,0003 1007,647 203,6294 3,26 1977,6 0,0002 412,5
2025 4 17 14 1 27,7 0,0003 1008,51 195,9454 2,36 3734,1 0,0004 413,7
2025 4 17 15 1 27 0,0002 1008,813 188,1301 2,16 3042,9 0,0008 414
2025 4 17 16 1 26,8 0,0002 1008,797 202,6199 1,94 2105,1 0,0001 414,2
2025 4 17 17 1 26,3 0,0002 1008,615 212,0054 1,14 2039,9 0 412,2
2025 4 17 18 1 26 0,0002 1008,245 206,5651 0,66 2752,8 0 410,5
2025 4 17 19 1 25,9 0,0002 1007,603 194,0362 0,26 1968,6 0 409,8
2025 4 17 20 1 25,7 0,0002 1007,727 116,565 0,44 1265,2 0,0003 409,9
2025 4 17 21 1 25,6 0,0002 1007,503 89,99997 0,8 610,3 0,0004 409,9
2025 4 17 22 1 26,2 0,0002 1007,62 70,34614 1,65 451,8 0,0007 409,3
2025 4 17 23 1 26,2 0,0002 1007,775 70,55993 2,06 389,3 0,001 408,6
2025 4 17 0 1 26,5 0,0002 1008,6 75,06855 1,66 1685,9 0,0013 410,3
2025 4 18 1 1 27,5 0,0002 1009,004 77,90521 1,49 1704,6 0,0003 409,7
2025 4 18 2 1 28,8 0,0002 1009,399 69,44392 0,89 1289,3 0 408,9
2025 4 18 3 1 29,8 0,0002 1009,243 6,44E-05 0,04 1622,3 0 408
2025 4 18 4 1 30,4 0,0002 1008,856 270 0,7 554 0,0048 406,7
2025 4 18 5 1 30,8 0,0002 1007,898 278,7462 1,34 563,4 0,0002 405,6
2025 4 18 6 1 30,9 0,0002 1007,124 278,9727 1,99 1234,6 0,0002 408,4
2025 4 18 7 1 30,3 0,0002 1006,028 281,7683 2,65 543,9 0,0011 412,8
2025 4 18 8 1 30,7 0,0002 1005,263 270 2,8 634,1 0,0036 417,7
2025 4 18 9 1 29,8 0,0002 1005,488 296,5651 3,41 760 0,0076 421,6
2025 4 18 10 1 29 0,0002 1006,099 300,9638 3,44 865,7 0,0038 424,4
2025 4 18 11 1 28,6 0,0002 1006,417 312,5105 2,41 935,9 0,0037 426,7
2025 4 18 12 1 28,2 0,0003 1007,491 351,2539 1,89 1626,9 0,0019 426,5
2025 4 18 13 1 27,7 0,0003 1007,774 32,73517 2,86 1492,7 0,0308 426
2025 4 18 14 1 27,3 0,0003 1008,42 44,99995 2 1693,2 0,0404 423,8
2025 4 18 15 1 26,8 0,0003 1008,71 66,03747 1,06 1218,1 0,0172 419,6
2025 4 18 16 1 26,8 0,0003 1008,55 66,03747 1,06 1250,4 0,0004 418,1
2025 4 18 17 1 26,6 0,0003 1008,365 74,05457 0,74 2182,2 0,0041 416,4
2025 4 18 18 1 26,4 0,0002 1007,996 101,3099 0,51 2239,5 0,0009 415,8
2025 4 18 19 1 26,2 0,0002 1007,112 135 0,11 1766,9 0,0018 414,6
2025 4 18 20 1 26,2 0,0002 1007,04 123,69 0,34 1886,5 0,0008 414,3
2025 4 18 21 1 26,2 0,0002 1007,073 122,0054 1,05 876,7 0,0003 413,8
2025 4 18 22 1 26,1 0,0002 1007,861 63,43491 1,25 775,5 0,0046 413,1
2025 4 18 23 1 26,1 0,0002 1008,067 75,96372 1,29 695,4 0,0033 412,9
2025 4 18 0 1 26,1 0,0002 1008,688 101,3099 1,04 2429,7 0,0445 414,5
2025 4 19 1 1 26,7 0,0002 1009,538 94,76361 1,21 1689 0,0901 413,6
2025 4 19 2 1 27,6 0,0002 1010,511 101,3099 1,04 898,9 0,0496 413
2025 4 19 3 1 28,2 0,0002 1010,021 123,69 0,34 989 0,1962 412,6
2025 4 19 4 1 28,3 0,0002 1009,715 260,5377 0,61 893,1 0,0561 412,1
2025 4 19 5 1 28,5 0,0002 1008,797 288,435 1,36 515,1 0,223 411,7
2025 4 19 6 1 28,8 0,0002 1007,795 295,2012 2,34 503,7 0,1544 413
2025 4 19 7 1 29,2 0,0002 1007,031 275,4404 2,14 759,8 0,066 414,9
2025 4 19 8 1 27,9 0,0002 1006,574 274,7637 2,44 475,8 0,1001 417,4
2025 4 19 9 1 27,2 0,0002 1006,641 267,5105 2,31 384 0,3812 419,8
2025 4 19 10 1 27,4 0,0002 1007,038 265,9144 1,41 345,1 0,3313 417,2
2025 4 19 11 1 27,1 0,0002 1007,711 296,5651 0,69 940,7 0,337 420,6
2025 4 19 12 1 26,8 0,0002 1009,069 8,130041 0,59 388,9 0,2918 421,9
2025 4 19 13 1 26,2 0,0002 1009,688 6,44E-05 0,81 426 0,4348 421,1
2025 4 19 14 1 26,2 0,0002 1010,35 21,80135 2,85 431,6 0,2832 420,4
2025 4 19 15 1 25,9 0,0003 1010,409 43,02502 3,65 382,9 0,0943 419,4
2025 4 19 16 1 25,7 0,0002 1010,449 63,43491 2,61 427,8 0,0236 417,2
2025 4 19 17 1 25,6 0,0002 1010,15 66,37058 2,09 539,8 0,0315 415,7
2025 4 19 18 1 25,3 0,0002 1009,746 74,05457 1,56 572,6 0,0385 414,9
2025 4 19 19 1 24,9 0,0002 1009,25 67,38009 1,45 684,7 0,0035 413,8
2025 4 19 20 1 24,8 0,0002 1008,78 44,99995 0,96 499,5 0,0001 413,2
2025 4 19 21 1 24,7 0,0001 1009,019 30,9637 1,6 203 0,0048 412,8
2025 4 19 22 1 25,1 0,0001 1008,956 89,99997 1,5 185,3 0,0306 412,4
2025 4 19 23 1 25 0,0002 1010,012 104,0362 1,76 74,3 0,1005 411,7
2025 4 19 0 1 25,5 0,0002 1010,965 111,8014 1,86 277,1 0,1372 411
2025 4 20 1 1 26,3 0,0002 1011,658 123,69 2,5 402,8 0,1047 409,6
2025 4 20 2 1 27 0,0002 1011,88 122,9052 2,91 205,5 0,1062 408,9
2025 4 20 3 1 27,9 0,0002 1011,412 128,6598 2,94 62,6 0,1398 408,9
2025 4 20 4 1 28,9 0,0002 1010,918 133,025 3,46 138,4 0,1067 408,5
2025 4 20 5 1 29,3 0,0002 1009,603 135 2,64 158,9 0,1203 408,3
2025 4 20 6 1 29,5 0,0002 1008,357 161,565 1,84 291,9 0,0349 409,7
2025 4 20 7 1 29 0,0002 1007,768 194,9314 2,65 306,6 0,0541 412,1
2025 4 20 8 1 27,7 0,0002 1007,432 210,0686 4,71 873,9 0,0696 413,8
2025 4 20 9 1 26,9 0,0002 1007,622 208,4429 7,06 1832 0,0333 416
2025 4 20 10 1 27,5 0,0002 1008,331 221,0091 7,29 2173,2 0,0072 421,3
2025 4 20 11 1 27,2 0,0002 1009,309 209,2488 7,65 809,1 0,0259 424,7
2025 4 20 12 1 27,1 0,0003 1010,589 199,0935 7,66 1496,5 0,0035 424,6
2025 4 20 13 1 26,9 0,0003 1011,295 187,4314 5,59 1818,9 0,1483 425,7
2025 4 20 14 1 26,5 0,0003 1012,441 173,991 3,81 1209,2 0,5091 422,7
2025 4 20 15 1 26,2 0,0002 1012,308 183,5763 2,66 668,9 0,0828 419,2
2025 4 20 16 1 26 0,0002 1012,698 174,5597 4,61 778,2 0,0331 416,8
2025 4 20 17 1 25,7 0,0002 1011,777 194,0362 4,5 650,8 0,0093 414,9
2025 4 20 18 1 25,5 0,0001 1011,405 187,7652 5,14 562,9 0,0116 414,5
2025 4 20 19 1 25,1 0,0002 1010,694 164,9315 7,46 529,4 0,0177 413,9
2025 4 20 20 1 24,8 0,0002 1010,514 159,8637 10,1 681,5 0,0103 413,6
2025 4 20 21 1 25 0,0002 1010,649 160,9744 9,41 667,8 0,0088 412,9
2025 4 20 22 1 24,9 0,0002 1010,906 137,2906 2,89 402 0,0571 412,6
2025 4 20 23 1 24,8 0,0002 1011,256 132,7094 2,74 372,8 0,0586 412,2
2025 4 20 0 1 25 0,0002 1011,95 107,354 1,85 436,5 0,359 409,2
2025 4 21 1 1 26,1 0,0002 1012,675 111,8014 1,86 889,5 0,408 408,6
2025 4 21 2 1 27 0,0002 1012,732 104,0362 1,29 1786,4 0,3918 408,3
2025 4 21 3 1 28,1 0,0002 1012,447 144,4623 0,99 2466,4 0,3447 408,1
2025 4 21 4 1 28,8 0,0002 1011,407 185,7106 1,1 2808,2 0,314 407,6
2025 4 21 5 1 29,3 0,0002 1010,379 188,7462 1,89 333,1 0,2378 407,8
2025 4 21 6 1 29,6 0,0002 1009,236 183,5763 2,66 210,4 0,1453 409,3
2025 4 21 7 1 29,8 0,0002 1008,357 186,7098 3,09 299,9 0,0758 412,2
2025 4 21 8 1 29,8 0,0002 1007,686 185,4403 4,61 437,1 0,0613 414,3
2025 4 21 9 1 29,1 0,0002 1007,738 191,7683 6,26 513,2 0,0333 417,9
2025 4 21 10 1 28,5 0,0002 1007,797 187,4314 5,59 642,5 0,0371 420,6
2025 4 21 11 1 28,1 0,0002 1008,592 170,1342 5,69 718,3 0,0709 422,3
2025 4 21 12 1 27,6 0,0002 1009,621 163,7398 6,46 1148,5 0,0301 424,2
2025 4 21 13 1 27,4 0,0002 1010,583 150,5241 6,59 799,8 0,1168 424,6
2025 4 21 14 1 26,9 0,0002 1011,126 144,4623 5,91 616,9 0,2162 423,9
2025 4 21 15 1 26,3 0,0002 1011,416 138,1798 5,31 1149 0,0052 420,3
2025 4 21 16 1 26,2 0,0002 1011,256 124,3803 3,59 1205,6 0,0047 417,7
2025 4 21 17 1 25,9 0,0002 1010,717 126,3843 3,86 2894,3 0,0244 416,2
2025 4 21 18 1 25,8 0,0002 1010,142 141,7098 5,11 3305,1 0,03 414,8
2025 4 21 19 1 25,6 0,0002 1009,269 150,2551 5,61 3419 0,0243 413,3
2025 4 21 20 1 25,4 0,0002 1008,857 154,44 6,39 5516,7 0,0149 411,6
2025 4 21 21 1 25,3 0,0002 1008,843 149,4208 6,14 6534,1 0,0024 409,7
2025 4 21 22 1 25,7 0,0002 1009,501 123,0238 3,69 5454,3 0,0002 407,5
2025 4 21 23 1 25,6 0,0003 1009,686 118,8108 3,21 4185 0,0003 405,2
2025 4 21 0 1 26 0,0003 1010,907 115,3462 2,71 4521,3 0,0032 405,5
2025 4 22 1 1 27 0,0003 1011,212 115,3462 2,71 4546,7 0,0001 404,6
2025 4 22 2 1 28,3 0,0002 1011,531 111,8014 2,64 4655,1 0 403,9
2025 4 22 3 1 29,6 0,0002 1011,178 116,565 2,61 4578,1 0 403,8
2025 4 22 4 1 30,5 0,0002 1010,57 145,3048 2,59 2900,1 0 403,7
2025 4 22 5 1 30,8 0,0002 1009,258 180 2,56 1373,4 0 404,1
2025 4 22 6 1 30,1 0,0002 1008,554 207,8973 3,79 572,1 0 406,7
2025 4 22 7 1 28,2 0,0002 1007,445 237,5288 4,16 415,9 0,002 411,2
2025 4 22 8 1 27,3 0,0002 1007,27 237,1715 7,1 523,9 0,0056 416,6
2025 4 22 9 1 27,3 0,0002 1008,091 234,8658 6,31 656,9 0,0193 420,6
2025 4 22 10 1 26,4 0,0002 1008,453 226,3322 6,61 705 0,0932 425
2025 4 22 11 1 26,3 0,0002 1008,829 242,2415 2,9 556,3 0,9446 424
2025 4 22 12 1 26,4 0,0002 1009,283 235,3049 2,11 939,2 0,7081 431,1
2025 4 22 13 1 26,5 0,0002 1010,1 216,2539 3,35 348,9 0,8563 428,4
2025 4 22 14 1 26,5 0,0002 1010,482 219,8056 4,74 294,6 0,7448 420,5
2025 4 22 15 1 26,1 0,0002 1010,581 215,3112 7,46 1080,8 0,8945 417,5
2025 4 22 16 1 25,7 0,0002 1010,592 202,9321 7,86 1310,3 0,4226 413,8
2025 4 22 17 1 25,3 0,0001 1010,372 188,9726 3,91 3380,6 0,0686 411,9
2025 4 22 18 1 24,9 0,0002 1009,806 185,7106 4,2 3147,6 0,0758 411,7
2025 4 22 19 1 24,8 0,0001 1009,193 180 3,24 1010,2 0,0643 412
2025 4 22 20 1 25 0,0001 1008,871 145,3048 2,59 522,7 0,0288 412,5
2025 4 22 21 1 24,9 0,0002 1008,776 140,7106 2,11 366,9 0,2404 412
2025 4 22 22 1 25,2 0,0002 1009,521 129,2894 1,91 408,4 0,4427 411,4
2025 4 22 23 1 25,3 0,0002 1009,828 93,01276 1,91 276,8 0,5432 409,3
2025 4 22 0 1 25,8 0,0002 1010,955 73,73976 2,89 780,7 0,0467 410,7
2025 4 23 1 1 26,3 0,0002 1011,478 64,29 4,39 430,7 0,0868 410,6
2025 4 23 2 1 26,8 0,0002 1011,825 62,59238 4,66 864,5 0,198 410,4
2025 4 23 3 1 27,7 0,0002 1011,582 60,01832 4,85 418,9 0,3142 409,1
2025 4 23 4 1 28,4 0,0002 1010,991 64,53661 3,1 292,4 0,0986 408,1
2025 4 23 5 1 29,2 0,0002 1010,323 71,56501 2,16 222,6 0,0956 408,5
2025 4 23 6 1 29,9 0,0002 1009,133 71,56501 1,36 271,9 0,0467 410,2
2025 4 23 7 1 28,7 0,0002 1008,32 50,19438 0,85 285,1 0,0354 412,3
2025 4 23 8 1 27,2 0,0002 1007,705 284,0363 0,41 385,6 0,06 414,2
2025 4 23 9 1 26,9 0,0002 1008,083 206,5651 1,5 398,7 0,0358 417,5
2025 4 23 10 1 26,5 0,0002 1007,816 193,2405 3,29 413,3 0,047 420,5
2025 4 23 11 1 26,4 0,0002 1008,814 160,56 3,49 418,4 0,0664 422,5
2025 4 23 12 1 26,2 0,0002 1009,803 127,5686 2,3 627,3 0,1733 419,5
2025 4 23 13 1 26,2 0,0002 1010,538 120,2564 1,69 500,5 0,2982 418,7
2025 4 23 14 1 25,9 0,0002 1010,8 105,9454 1,56 280,7 0,427 416,6
2025 4 23 15 1 25,5 0,0002 1011,152 112,6198 1,45 275,7 0,0639 414,2
2025 4 23 16 1 25,4 0,0002 1010,741 108,4349 1,75 284,7 0,084 413,4
2025 4 23 17 1 25,2 0,0002 1010,49 89,99997 1,9 2706,9 0,0553 412,4
2025 4 23 18 1 25,1 0,0002 1009,912 81,02734 1,99 3610,9 0,0485 411,3
2025 4 23 19 1 25 0,0002 1009,231 78,69003 2,16 5436 0,1053 410,8
2025 4 23 20 1 25 0,0002 1008,915 77,1957 2,45 4991,3 0,0588 410,2
2025 4 23 21 1 24,9 0,0002 1008,878 80,13416 2,46 4409,1 0,0201 409,5
2025 4 23 22 1 25,2 0,0002 1009,285 72,12126 4,1 1016,4 0,0619 408,8
2025 4 23 23 1 25 0,0002 1009,973 67,06786 3,81 527,6 0,0143 407,9
2025 4 23 0 1 25,5 0,0002 1010,824 65,37639 3,61 1198,5 0,0166 408,6
2025 4 24 1 1 26,5 0,0002 1011,152 69,44392 3,21 4387 0,0016 407,2
2025 4 24 2 1 28 0,0002 1011,505 79,11444 2,85 3895,7 0,0022 405,3
2025 4 24 3 1 29,3 0,0002 1010,791 94,96971 2,34 3928,1 0,0008 403,9
2025 4 24 4 1 30,1 0,0002 1010,272 116,565 1,89 4386,2 0 402,9
2025 4 24 5 1 30,8 0,0002 1009,266 144,4623 0,99 1054,8 0,0001 402,3
2025 4 24 6 1 31,1 0,0002 1008,048 225 0,75 1126,2 0,0002 404,8
2025 4 24 7 1 31,2 0,0002 1007,242 254,0546 1,56 451 0,0056 409,1
2025 4 24 8 1 31,1 0,0002 1006,599 254,4759 2,05 728 0,0212 414,6
2025 4 24 9 1 29,6 0,0002 1006,748 240,6423 2,41 1028,7 0,0308 419,2
2025 4 24 10 1 28,9 0,0003 1007,467 231,3402 2,94 924 0,0249 423
2025 4 24 11 1 28,3 0,0002 1007,99 208,6105 1,81 1527,6 0,0038 425,1
2025 4 24 12 1 28,1 0,0002 1008,909 180 2,25 1587,2 0,0097 426,3
2025 4 24 13 1 27,8 0,0002 1009,424 171,2538 1,89 1231,9 0,0074 427,1
2025 4 24 14 1 27,4 0,0002 1010,443 138,3664 1,61 2336,6 0,071 424,9
2025 4 24 15 1 26,6 0,0002 1010,775 114,7751 1,66 2416 0,0685 421,3
2025 4 24 16 1 26,4 0,0002 1011,144 98,74613 1,34 1886,2 0,139 419,7
2025 4 24 17 1 26,1 0,0002 1010,864 75,96372 1,29 1869,4 0,0053 417,4
2025 4 24 18 1 25,6 0,0002 1010,5 67,38009 1,45 1541,6 0,0019 417
2025 4 24 19 1 25,3 0,0002 1009,539 71,56501 1,75 1441 0,0018 416,2
2025 4 24 20 1 25,4 0,0002 1009,191 78,69003 1,04 1271,4 0,002 415,8
2025 4 24 21 1 25,4 0,0002 1009,38 89,99997 1,3 1319 0,0033 415,6
2025 4 24 22 1 25,8 0,0002 1009,085 75,2564 2,15 493,3 0,0334 414,7
2025 4 24 23 1 25,5 0,0002 1009,587 84,55963 2,14 545,5 0,2758 412,2
2025 4 24 0 1 25,7 0,0002 1010,379 75,96372 2,25 536,4 0,1279 413,7
2025 4 25 1 1 26,7 0,0002 1010,861 71,56501 2,16 517,7 0,0582 411,9
2025 4 25 2 1 28,1 0,0002 1011,138 69,44392 1,96 565,4 0,032 410,4
2025 4 25 3 1 29,3 0,0002 1010,603 74,05457 1,56 1959,4 0,0119 409,1
2025 4 25 4 1 30 0,0002 1010,006 82,87495 0,81 2118 0,0013 408,1
2025 4 25 5 1 30,6 0,0002 1008,98 270 0,2 7108,3 0,0001 407,1
2025 4 25 6 1 30,5 0,0002 1008,341 265,6013 1,31 7401,9 0 407,9
2025 4 25 7 1 30,2 0,0002 1007,417 267,3975 2,21 2951,9 0,0001 410,7
2025 4 25 8 1 28,8 0,0002 1006,438 270 2,5 741,5 0,0083 416,6
2025 4 25 9 1 28,4 0,0002 1006,555 275,7106 2,04 861,9 0,0131 421,8
2025 4 25 10 1 29 0,0002 1006,941 248,7495 2,29 887,4 0,0234 424,8
2025 4 25 11 1 28,7 0,0002 1008,198 260,5377 1,24 779,4 0,0106 427,4
2025 4 25 12 1 28,5 0,0002 1009,145 270 0,8 2224 0,0039 427,5
2025 4 25 13 1 28,3 0,0002 1009,647 284,0363 0,41 1868,5 0,0408 427,1
2025 4 25 14 1 27,7 0,0002 1010,406 143,1301 0,46 NaN 0,299 424,9
2025 4 25 15 1 26,9 0,0002 1010,763 142,4314 2,69 NaN 0,003 421,6
2025 4 25 16 1 26,7 0,0002 1010,84 140,1944 2,44 7612,7 0,0116 419,7
2025 4 25 17 1 26,3 0,0001 1010,329 141,8428 3,06 4636 0 418,2
2025 4 25 18 1 25,9 0,0002 1010,063 135 2,99 1009,1 0,0006 417,1
2025 4 25 19 1 25,8 0,0002 1009,423 123,69 2,5 974,1 0,0033 416,2
2025 4 25 20 1 25,6 0,0002 1009,192 118,3007 1,79 720 0,0016 415,4
2025 4 25 21 1 25,5 0,0002 1009,365 120,2564 1,69 660,7 0,0009 414,9
2025 4 25 22 1 25,2 0,0002 1009,527 79,69512 1,14 619 0,0036 413,9
2025 4 25 23 1 25,1 0,0002 1010,179 61,6992 1,79 382,6 0,087 412,2
2025 4 25 0 1 25,3 0,0002 1010,65 57,52876 1,59 365,5 0,0192 413,1
2025 4 26 1 1 26,3 0,0002 1011,463 48,36641 1,54 457,9 0,0988 411,6
2025 4 26 2 1 27,6 0,0002 1011,804 18,43489 1,11 507,3 0,0635 410,1
2025 4 26 3 1 29 0,0002 1011,201 315 2,31 586,3 0,2377 409,6
2025 4 26 4 1 29,7 0,0002 1010,562 303,6901 3,24 703,2 0,1652 408,4
2025 4 26 5 1 30,3 0,0002 1009,126 298,6105 3,64 286,7 0,1208 408
2025 4 26 6 1 29,7 0,0002 1008,208 290,3232 3,7 309,9 0,0235 410,1
2025 4 26 7 1 29,2 0,0002 1007,193 275,1945 3,39 324,9 0,0153 413,8
2025 4 26 8 1 29,2 0,0002 1006,467 288,435 4 515,6 0,0273 418,5
2025 4 26 9 1 28,8 0,0002 1006,59 295,71 4,39 739,2 0,0223 422,9
2025 4 26 10 1 27,9 0,0002 1007,314 304,6952 2,11 3027,5 0,0267 425,8
2025 4 26 11 1 27,8 0,0002 1007,701 310,6013 1,06 3731 0,0693 428,4
2025 4 26 12 1 27,4 0,0002 1007,756 333,435 0,66 432,5 1,3614 431,4
2025 4 26 13 1 27,2 0,0002 1008,634 14,03618 0,26 565,6 0,1076 424,3
2025 4 26 14 1 26,8 0,0002 1009,226 59,0362 0,59 501 0,0241 418
2025 4 26 15 1 26,2 0,0002 1009,515 69,44392 0,89 495,4 0,006 417
2025 4 26 16 1 26 0,0002 1009,577 71,56501 0,99 489,2 0,0313 417,5
2025 4 26 17 1 25,8 0,0002 1009,131 82,87495 0,81 468,1 0,0145 416
2025 4 26 18 1 25,9 0,0002 1008,495 98,13007 0,71 463,6 0,0063 414,9
2025 4 26 19 1 25,9 0,0002 1008,064 74,05457 0,74 416,8 0,0328 413,6
2025 4 26 20 1 25,8 0,0002 1007,674 71,56501 0,64 397,4 0,0588 412,3
2025 4 26 21 1 25,5 0,0002 1007,943 75,96372 0,84 355,6 0,0766 411,3
2025 4 26 22 1 25,7 0,0002 1008,329 57,52876 1,59 240,6 0,0423 410,5
2025 4 26 23 1 25,6 0,0002 1008,854 66,03747 1,06 229,7 0,0061 409,2
2025 4 26 0 1 26 0,0002 1009,633 60,94535 1,15 323,6 0,0068 411
2025 4 27 1 1 27 0,0002 1010,23 75,96372 0,84 198,3 0,0152 410,2
2025 4 27 2 1 28,2 0,0002 1010,609 80,53764 0,61 231 0,0101 409,4
2025 4 27 3 1 29,1 0,0002 1010,225 315 0,11 160,5 0,0509 409,3
2025 4 27 4 1 29,9 0,0002 1009,565 296,5651 0,69 160,1 0,0146 408,9
2025 4 27 5 1 30,4 0,0002 1008,891 274,0857 1,41 126,5 0,0597 408,5
2025 4 27 6 1 29,2 0,0002 1007,802 278,5308 2,09 188,5 0,0612 409,8
2025 4 27 7 1 28,4 0,0002 1006,616 284,6209 2,66 282,6 0,0219 413,7
2025 4 27 8 1 28,7 0,0002 1006,559 262,875 2,49 466,2 0,0214 417,5
2025 4 27 9 1 28,6 0,0002 1006,151 278,5308 2,09 533,2 0,0134 421,8
2025 4 27 10 1 28,5 0,0002 1006,573 263,2902 1,74 713,3 0,0265 423,3
2025 4 27 11 1 28 0,0002 1007,334 274,3987 1,31 1167,2 0,2633 424,1
2025 4 27 12 1 27,8 0,0002 1007,74 275,7106 1,01 1133,8 0,097 421,4
2025 4 27 13 1 27,6 0,0002 1008,549 303,6901 0,76 1516,8 0,1549 419,5
2025 4 27 14 1 27,3 0,0002 1009,15 315 0,11 2130,3 0,2879 417,9
2025 4 27 15 1 26,7 0,0003 1009,139 63,43491 0,21 3174,9 0,0006 415,8
2025 4 27 16 1 26,4 0,0002 1009,364 71,56501 0,31 4491,6 0 413,4
2025 4 27 17 1 26,3 0,0002 1008,854 #DIV/0! 0 7279,8 0 411,4
2025 4 27 18 1 26 0,0002 1008,561 206,5651 0,14 7112,7 0 410,2
2025 4 27 19 1 25,9 0,0002 1007,806 6,44E-05 0,01 2340,7 0 409,5
2025 4 27 20 1 25,8 0,0002 1007,456 44,99995 0,39 1570,5 0,0007 408,8
2025 4 27 21 1 25,4 0,0002 1007,384 63,43491 0,69 743,2 0,0021 408,2
2025 4 27 22 1 25,6 0,0002 1007,949 21,80135 0,45 327,7 0,0002 407,6
2025 4 27 23 1 25,4 0,0002 1008,702 53,13006 0,49 330,3 0,0001 407,3
2025 4 27 0 1 25,9 0,0002 1008,944 89,99997 0,4 167,6 0,0004 404,8
2025 4 28 1 1 26,8 0,0002 1009,534 180 0,01 135,2 0,0049 404,2
2025 4 28 2 1 28,1 0,0002 1009,647 243,435 0,96 134,4 0,0097 403,8
2025 4 28 3 1 29,4 0,0002 1009,302 250,3462 1,65 129,5 0,0201 403,6
2025 4 28 4 1 29,9 0,0002 1009,124 270 1,9 140,3 0,0265 403,7
2025 4 28 5 1 29,8 0,0002 1008,02 286,2602 2,89 166,9 0,0332 404,2
2025 4 28 6 1 28,4 0,0002 1007,47 275,7106 3,09 230,3 0,0514 407,1
2025 4 28 7 1 28,6 0,0002 1007,032 250,4634 4,31 285,4 0,0622 411,7
2025 4 28 8 1 28,3 0,0002 1006,439 244,1337 5,86 524,1 0,0292 417,4
2025 4 28 9 1 27,6 0,0002 1006,575 244,9831 4,96 675,1 0,0186 420,4
2025 4 28 10 1 27,6 0,0002 1006,867 238,3925 5,16 670,7 0,2852 420,4
2025 4 28 11 1 27,4 0,0002 1007,397 232,125 3,76 453,1 1,4008 420,7
2025 4 28 12 1 27,2 0,0002 1008,251 213,6901 3,25 589,2 1,0562 419,4
2025 4 28 13 1 26,7 0,0003 1009,404 206,5651 1,5 689,7 0,2606 417,9
2025 4 28 14 1 26,3 0,0003 1009,794 201,8014 0,45 496,7 0,02 417,6
2025 4 28 15 1 25,8 0,0003 1009,744 89,99997 0,1 570,3 0,0526 417,2
2025 4 28 16 1 25,6 0,0003 1009,615 11,30987 0,35 525,1 0,0078 415
2025 4 28 17 1 25,7 0,0003 1009,271 18,43489 1,11 508,7 0,0034 413,2
2025 4 28 18 1 25,4 0,0002 1008,769 29,74483 0,89 616,2 0,0136 412,7
2025 4 28 19 1 25,4 0,0002 1008,208 35,53763 0,99 575,5 0,0291 412
2025 4 28 20 1 25,3 0,0002 1007,848 66,80137 0,79 547,5 0,0558 411,3
2025 4 28 21 1 25,1 0,0002 1007,622 89,99997 0,9 525,9 0,0931 410,2
2025 4 28 22 1 25,5 0,0002 1007,917 84,28937 1,01 215,3 0,0771 409,1
2025 4 28 23 1 25,3 0,0002 1008,625 81,86986 1,44 239,5 0,0503 408,6
2025 4 28 0 1 25,8 0,0002 1008,973 89,99997 1,6 535,4 0,0114 408,1
2025 4 29 1 1 26,8 0,0002 1009,264 93,36643 1,71 729,2 0,0095 407,2
2025 4 29 2 1 28,2 0,0002 1009,475 94,39867 1,31 658,6 0,0037 406,3
2025 4 29 3 1 29,3 0,0002 1009,278 123,69 0,34 670,7 0,0052 405,5
2025 4 29 4 1 29,9 0,0002 1009,255 236,31 0,76 150,5 0,0133 405
2025 4 29 5 1 30,4 0,0002 1008,288 251,5651 1,36 94,2 0,0092 405,1
2025 4 29 6 1 30,8 0,0002 1007,776 266,6336 1,71 253 0,0031 407,9
2025 4 29 7 1 30,2 0,0002 1007,115 267,3975 2,21 535,7 0,0172 412
2025 4 29 8 1 29,1 0,0002 1006,625 266,8202 1,81 696 0,0265 417
2025 4 29 9 1 28,8 0,0003 1006,546 251,5651 1,75 1182,6 0,0268 421,7
2025 4 29 10 1 27,5 0,0002 1007,124 253,3008 2,36 776,7 0,006 423,8
2025 4 29 11 1 27,3 0,0002 1007,759 264,8056 2,24 746,9 0,0135 427,6
2025 4 29 12 1 27,3 0,0002 1008,383 265,0303 2,34 2524,9 0,1989 428,4
2025 4 29 13 1 27,3 0,0003 1009,221 257,7353 2,55 465,2 0,2472 423,2
2025 4 29 14 1 27,2 0,0003 1009,86 252,3499 2,69 900,2 0,0758 420,2
2025 4 29 15 1 26,6 0,0002 1010,155 244,6538 2,71 912,5 0,0331 418,9
2025 4 29 16 1 26,3 0,0002 1010,024 222,8789 3,26 578 0,0104 417,1
2025 4 29 17 1 26 0,0002 1009,937 210,9638 3,15 613,2 0,0032 415,7
2025 4 29 18 1 26 0,0002 1009,115 203,6294 3,26 637,3 0,0054 415,2
2025 4 29 19 1 25,9 0,0002 1008,687 183,0128 3,71 634,4 0,0079 414,6
2025 4 29 20 1 25,8 0,0002 1008,259 174,2894 4,2 630,5 0,0464 414,4
2025 4 29 21 1 25,3 0,0002 1008,25 165,9638 4,5 539,6 0,1084 413
2025 4 29 22 1 25,9 0,0002 1008,516 142,4314 2,69 524 0,0865 412,1
2025 4 29 23 1 25,8 0,0002 1009,209 129,2894 1,91 428 0,0204 411,3
Temperatur Temperatur Tekanan Precipitation
v Angin u Angin
K C Pa (mm)
-0,5 -0,3 298,7 25,7 100941,5 NaN
-0,4 -0,6 299,3 26,3 101008,1 NaN
-0,7 -0,5 300,5 27,5 101054 NaN
-0,8 0,1 301,5 28,5 101041,8 NaN
-1 0,9 301,9 28,9 100985,1 NaN
-0,9 1,6 302,7 29,7 100889,9 0,0000135
-0,8 1,8 302,8 29,8 100804,8 0,0000056
-0,8 1,7 302,1 29,1 100694,5 0,0000283
-0,8 1,7 301,3 28,3 100610,4 0,0000422
-1,3 1,7 301,4 28,4 100607 0,0000163
-1,1 1,7 301,3 28,3 100675,5 0,0000081
-0,9 1,7 300,7 27,7 100760,3 0,0000119
-1,1 1,4 300,4 27,4 100825,4 0,0000036
-1,5 0,7 300 27 100926,9 0,0000010
-1,6 0,2 300 27 100934 0,0000011
-1,4 -0,2 300 27 100981,8 0,0000005
-1,1 -0,6 299,8 26,8 101007,8 0,0000001
-1,1 -1,1 299,5 26,5 100993,6 0,0000000
-0,7 -1,1 299,3 26,3 100941,2 0,0000000
-0,6 -1 298,9 25,9 100869,9 0,0000000
-0,8 -1,2 298,6 25,6 100836 0,0000000
-0,7 -1,6 298,5 25,5 100840,1 0,0000000
-0,7 -2 298,7 25,7 100846,5 0,0000000
-0,3 -2,2 298,5 25,5 100923,9 0,0000000
-0,3 -2,4 298,7 25,7 100986,6 0,0000001
-0,1 -2,1 299,8 26,8 101029 0,0000012
0 -1,9 301,2 28,2 101047,2 0,0000008
0,3 -1,6 302 29 100993,3 0,0000001
0,3 -0,9 303 30 100953,6 0,0000006
0,2 -0,1 303,7 30,7 100880,2 0,0000005
0 0,9 304,1 31,1 100800,6 0,0000000
-0,2 1,9 304,2 31,2 100730 0,0000008
-0,4 2,7 303,7 30,7 100646,6 0,0000016
0 2,9 303,4 30,4 100698,9 0,0000000
0 2,1 301,8 28,8 100741,3 0,0000000
-0,2 1,3 301,2 28,2 100823,6 0,0000000
-0,8 1,4 300,9 27,9 100915,3 0,0000005
-1 1 300,5 27,5 101002,5 0,0000350
-1,4 0,1 300,2 27,2 101058 0,0000622
-1,8 -0,3 300 27 101081,2 0,0000018
-1,9 -0,8 299,7 26,7 101096,5 0,0000002
-2,1 -1,1 299,4 26,4 101076,9 0,0000001
-2,1 -1,1 299,4 26,4 101042 0,0000006
-2 -1,1 299,1 26,1 100987,3 0,0000077
-1,7 -1 299 26 100957,7 0,0000015
-1,5 -1 298,6 25,6 100924,9 0,0000011
-0,8 -0,7 298,6 25,6 100975,3 0,0000007
0,2 -1 298,6 25,6 101027,9 0,0000012
0,4 -1 298,8 25,8 101085,8 0,0000054
0,2 -0,7 299,7 26,7 101154,4 0,0000000
-0,2 -0,9 300,9 27,9 101219 0,0000005
-0,4 -1 301,8 28,8 101180,4 0,0000000
-0,5 -0,8 302,1 29,1 101106,8 0,0000000
-0,9 0 303 30 101018,6 0,0000000
-1,4 0,9 302,8 29,8 100954 0,0000000
-1,6 1,7 302,8 29,8 100864,2 0,0000000
-1,3 2 302,1 29,1 100801,3 0,0000019
-0,8 1,7 301,7 28,7 100772,4 0,0000015
-0,7 2,2 300,9 27,9 100829,1 0,0000066
-1,8 1,7 300,5 27,5 100866,7 0,0000057
-2,4 0,8 300 27 100900,9 0,0000382
-2,2 0,7 299,7 26,7 100978,5 0,0000110
-2 0,5 299,3 26,3 101039,3 0,0000103
-1,3 0,1 299,4 26,4 101045,2 0,0000057
-0,6 -0,5 299,1 26,1 101069,6 0,0000623
-0,2 -0,8 298,8 25,8 101055,4 0,0000020
0 -1,1 298,7 25,7 101013,8 0,0000692
0 -1,1 298,5 25,5 100956,5 0,0000375
0,1 -0,9 298,2 25,2 100947,3 0,0000193
-0,2 -1,2 298,1 25,1 100935,1 0,0000481
-0,6 -1,5 297,9 24,9 100997,3 0,0000263
-0,4 -1,3 297,9 24,9 101045,7 0,0000187
0 -1,5 298 25 101103,4 0,0000004
0,5 -1,5 298,9 25,9 101127,5 0,0000000
0,7 -1,3 300,4 27,4 101162,9 0,0000001
1 -0,7 301,4 28,4 101123,2 0,0000000
1,2 0,4 302,1 29,1 101068 0,0000000
1,2 1,6 302,5 29,5 100990,2 0,0000000
0,8 2,2 302,5 29,5 100933,5 0,0000000
1 3,1 302,5 29,5 100696,2 0,0000001
0,6 2,4 301,9 28,9 100773,3 0,0000052
0 2,4 301,3 28,3 100719,5 0,0000140
0,8 2,1 301 28 100753,5 0,0000232
0,5 1,4 300,6 27,6 100826,7 0,0000107
0,9 1,2 300,3 27,3 100912,2 0,0000976
0,8 0,9 300,2 27,2 101020,2 0,0000494
0,9 0,4 300 27 101062,7 0,0001160
1,1 0 299,6 26,6 101070,8 0,0002441
0,9 -0,4 299,5 26,5 101062,1 0,0000126
1 -0,2 299,3 26,3 101020,9 0,0000011
0,9 0,3 298,9 25,9 100938 0,0000001
0,4 -0,1 298,7 25,7 100892,8 0,0000010
-0,1 -0,4 298,4 25,4 100860,5 0,0000100
-0,3 -0,4 298,3 25,3 100880,1 0,0000047
-0,8 -0,2 298,3 25,3 100899,7 0,0000046
-0,6 -0,2 298,3 25,3 100973,5 0,0000614
-0,4 -0,1 298,7 25,7 101022,2 0,0000200
-0,2 0 300 27 101095,3 0,0000785
-0,5 0,3 301,2 28,2 101103,1 0,0000754
-0,6 0,5 301,9 28,9 101072,9 0,0000751
-0,5 1,3 302,2 29,2 101014,5 0,0001207
-0,6 2,4 302,6 29,6 100910,6 0,0000256
-0,3 3 301,3 28,3 100862,4 0,0000144
0 3 301,5 28,5 100769,1 0,0000368
0,4 2,6 300,9 27,9 100730,3 0,0000442
-0,3 2,1 300,8 27,8 100713,7 0,0005220
0,5 2,9 300,6 27,6 100767,1 0,0002696
-0,2 1,4 300 27 100841,8 0,0004056
-0,2 1,1 299,8 26,8 100897,5 0,0004177
0 0,7 299,7 26,7 100979,4 0,0000500
0,4 0,4 299,7 26,7 101020,5 0,0000383
0,4 0 299,3 26,3 101013,4 0,0002127
0,2 -0,3 299,3 26,3 100997,7 0,0001667
0,1 -0,7 299 26 100970,7 0,0000430
0 -0,9 298,6 25,6 100939,9 0,0000263
-0,3 -0,3 298,2 25,2 100895 0,0000267
0,6 0,1 297,9 24,9 100876,7 0,0000126
0,7 -0,7 297,9 24,9 100874,8 0,0000044
0,3 -1,5 297,9 24,9 100864,5 0,0000218
0,6 -1,6 297,9 24,9 100938,8 0,0000598
0,8 -1,7 298 25 101008,4 0,0003036
1 -1,7 298,8 25,8 101077 0,0003899
0,8 -1,5 300 27 101108,3 0,0003869
0,7 -1 301,1 28,1 101102,7 0,0003166
0,4 -0,4 301,9 28,9 101038,2 0,0002125
0 0,1 302,4 29,4 100952,8 0,0001619
0,1 0,7 301,7 28,7 100856 0,0000884
0 1,7 301,1 28,1 100734,9 0,0000794
0,5 1,4 300,7 27,7 100730,8 0,0000500
1,2 1,1 300 27 100749,7 0,0000735
0,5 1,2 300,1 27,1 100802,9 0,0002462
0,2 -0,3 299,5 26,5 100855,1 0,0009711
0,3 -0,7 299,3 26,3 100949,9 0,0003513
0,2 -1 299,1 26,1 101016,4 0,0007782
0,3 -1,2 299 26 101095,4 0,0004369
0,3 -1,5 298,9 25,9 101120,7 0,0000690
0,2 -1,8 298,8 25,8 101120,4 0,0000528
-0,4 -2 298,6 25,6 101074,5 0,0000556
-0,7 -2 298,5 25,5 101024,3 0,0000499
-0,8 -2 298,4 25,4 100955,7 0,0000120
-0,7 -1,9 298,3 25,3 100966 0,0000111
-0,8 -1,6 298,1 25,1 100983,6 0,0000109
-0,7 -1,7 297,8 24,8 100970,9 0,0000503
0,1 -1,6 297,7 24,7 101057,2 0,0000327
0,4 -1,4 297,8 24,8 101128,4 0,0000269
0,5 -1,2 298,6 25,6 101195,5 0,0000376
0,8 -1,2 300 27 101211,9 0,0000429
1,3 -0,9 301,3 28,3 101184,7 0,0000296
1,7 -0,1 302,2 29,2 101117,7 0,0000203
1,6 0,7 302,8 29,8 101000,1 0,0000168
1,7 1,6 302,8 29,8 100940,8 0,0000243
2 2 301,7 28,7 100842,7 0,0000217
2,4 1,7 300,7 27,7 100816,4 0,0000102
1,6 1,7 301,1 28,1 100818,8 0,0000205
1,1 1,4 300,4 27,4 100846,9 0,0000208
0,4 0,8 300,4 27,4 100902,9 0,0000259
-0,2 0,8 299,9 26,9 101014,9 0,0007993
-0,6 1,2 299,6 26,6 101113,2 0,0002340
-0,1 1,6 299,4 26,4 101148,5 0,0000467
0,2 1,6 299,1 26,1 101200,8 0,0000252
0 1,5 299,1 26,1 101185,4 0,0000116
0,5 1,7 298,7 25,7 101122,7 0,0000566
0,7 2 298,4 25,4 101079,7 0,0000480
0,2 1,5 298,2 25,2 101045,4 0,0000940
0,4 1,1 298 25 101013,3 0,0000690
1,4 1 297,7 24,7 101081 0,0000090
1,5 1,8 297,7 24,7 101085,8 0,0000633
1,4 1,5 297,9 24,9 101154 0,0001506
1,1 0,6 298,1 25,1 101245,8 0,0001962
0,9 0,6 298,8 25,8 101307,4 0,0002450
0,9 1,5 299,9 26,9 101371,1 0,0002181
0,6 1,8 300,8 27,8 101376,3 0,0001876
0,1 2,2 300,6 27,6 101282,7 0,0001546
-0,2 2,8 299,9 26,9 101159,9 0,0001003
0,6 3 299,1 26,1 101126,5 0,0000354
0,5 2,9 299,8 26,8 101011,6 0,0000214
-0,4 2,4 300,2 27,2 100962,1 0,0000311
-0,8 2 300,4 27,4 100934,5 0,0001249
-1,1 1,7 299,8 26,8 100922,6 0,0001881
-0,8 1,1 299,7 26,7 100940 0,0004212
-0,4 0,6 299,6 26,6 100983,7 0,0006143
0 -0,9 299,3 26,3 101108,6 0,0002429
0 -1,5 298,8 25,8 101107,3 0,0001569
-0,9 -1,6 298,7 25,7 101148,8 0,0000283
-0,7 -1,5 298,4 25,4 101180,1 0,0000392
-0,5 -1,7 298,3 25,3 101116,5 0,0000269
-0,5 -1,9 298,1 25,1 101112,5 0,0000227
-0,5 -1,8 298 25 101018,4 0,0000757
-0,7 -1,7 297,7 24,7 100983,6 0,0000555
-0,7 -1,6 297,8 24,8 100977,8 0,0001075
-0,6 -2 297,5 24,5 101002 0,0001585
-0,4 -2,4 297,4 24,4 101071,3 0,0001723
-0,7 -2,9 297,6 24,6 101147,7 0,0001882
-0,6 -3 298,4 25,4 101205,8 0,0001374
-0,6 -2,7 299,8 26,8 101254,3 0,0000622
-0,6 -2,6 300,8 27,8 101252,5 0,0000342
-0,4 -2,1 301,6 28,6 101186,8 0,0000037
-0,3 -1,6 302,6 29,6 101055,2 0,0000002
-0,3 -1,4 302,8 29,8 100948,6 0,0000026
-0,4 -1,4 302,7 29,7 100827 0,0000050
-0,3 -1,6 303 30 100763,6 0,0000217
-0,3 -1,7 302,2 29,2 100730,3 0,0000234
0,2 -1 301 28 100714,8 0,0000328
0,4 -0,8 300,4 27,4 100740,9 0,0000082
-0,3 -0,9 299,9 26,9 100850,1 0,0000047
-0,9 -0,5 299,4 26,4 100935 0,0000049
-1,2 -0,2 299,2 26,2 100958,1 0,0000062
-1,6 -0,3 298,9 25,9 101000,5 0,0000078
-1,6 -0,7 298,8 25,8 101036,5 0,0000056
-1,4 -1,3 298,6 25,6 100984,1 0,0000162
-0,8 -1,6 298,5 25,5 100916,9 0,0000015
-0,3 -1,4 298,6 25,6 100858,1 0,0000016
0,5 -1 298,4 25,4 100807,7 0,0000155
0,4 -1,2 298,1 25,1 100809,9 0,0000066
-0,4 -0,7 298,8 25,8 100838,1 0,0000081
0 -0,2 298,5 25,5 100907 0,0000024
0,8 0 298,6 25,6 100966,1 0,0000050
0,7 0,5 299,2 26,2 101027,2 0,0000154
0,5 1,1 300,4 27,4 101065,4 0,0000196
0,7 1 301,2 28,2 101032,5 0,0000257
0,3 1 302 29 100937,3 0,0000963
-0,2 1,3 302,7 29,7 100814,7 0,0000512
0 2 302,9 29,9 100695 0,0000056
0,6 2,8 303 30 100619 0,0000355
1 2,9 302,3 29,3 100591,5 0,0000069
0,7 2,6 301,3 28,3 100570,2 0,0000035
0,3 1,4 300,5 27,5 100564,4 0,0000067
0,4 1,1 300,3 27,3 100633,4 0,0000124
-0,2 1,2 299,9 26,9 100750,4 0,0000540
-0,3 0,9 299,6 26,6 100856,9 0,0003971
-0,3 0,3 299,5 26,5 100969 0,0006803
-0,3 0,1 299,2 26,2 100978,4 0,0000163
-0,5 -0,1 299 26 100978,3 0,0000249
-0,5 -0,4 298,8 25,8 100887,7 0,0000225
-0,3 -0,1 298,5 25,5 100836,5 0,0000109
-0,2 -0,6 298,7 25,7 100761,8 0,0000086
-0,4 -1 298,4 25,4 100699,6 0,0000237
-0,6 -1,2 298,3 25,3 100729,6 0,0000485
-0,3 -1,6 298,8 25,8 100743,8 0,0000554
-0,1 -1,8 298,8 25,8 100811,5 0,0000054
-0,7 -1,6 299,1 26,1 100872,4 0,0000184
-0,8 -1,2 300 27 100954,5 0,0000256
-0,5 -1 301,2 28,2 100999,4 0,0000207
-0,5 -0,9 301,9 28,9 100997,3 0,0000122
-0,5 -0,7 302,5 29,5 100931,5 0,0000053
-0,8 -0,3 303,3 30,3 100837,9 0,0000078
-1,4 0,3 303,3 30,3 100748,9 0,0000250
-1,9 1 303,1 30,1 100662,3 0,0000082
-2,6 1,6 302,8 29,8 100592,9 0,0000032
-3 1,8 301,9 28,9 100589,3 0,0000112
-2,9 1,8 300,5 27,5 100694,7 0,0000038
-2,6 1,5 300,2 27,2 100774,2 0,0000020
-2 0,9 300,1 27,1 100856,4 0,0000119
-1,7 0,7 300 27 100936 0,0000219
-1,4 0,4 299,8 26,8 101019,7 0,0000446
-0,9 0 299,6 26,6 101016 0,0000038
-1 -0,4 299,4 26,4 101029,9 0,0000007
-1,1 -0,7 299,3 26,3 101001,8 0,0000000
-1,1 -0,8 298,9 25,9 100924,9 0,0000000
-1,4 -0,9 298,6 25,6 100874,3 0,0000000
-1,7 -1,3 298,4 25,4 100830,2 0,0000000
-1,7 -1,3 298,3 25,3 100835,9 0,0000000
-1,8 -1 298,2 25,2 100851,3 0,0000000
-1,2 -1 298,2 25,2 100916,6 0,0000000
-0,6 -0,6 298,6 25,6 100950,1 0,0000003
-1,1 -0,3 299,8 26,8 101006,6 0,0000008
-1,2 -0,2 301,2 28,2 101003,9 0,0000029
-1,1 0,1 302,2 29,2 100995,8 0,0000002
-0,7 0,7 302,9 29,9 100947 0,0000002
-0,5 1,6 303,5 30,5 100855,4 0,0000000
-0,8 2,3 303,6 30,6 100793,2 0,0000000
-0,9 2,7 303,6 30,6 100693,5 0,0000000
-1,4 2,9 303 30 100620,1 0,0000000
-1,3 2 302,2 29,2 100614,9 0,0000000
-0,9 1,3 301,5 28,5 100617,3 0,0000005
-1,5 1,5 301,3 28,3 100680,6 0,0000059
-1,4 1,4 301 28 100826,4 0,0000093
-1,4 1,1 300,7 27,7 100944,4 0,0003765
-0,5 1,2 300,4 27,4 100996,5 0,0001007
-0,5 1,3 300,3 27,3 101054,7 0,0000022
-0,7 1,2 300 27 101067,3 0,0000000
-0,7 1,1 299,5 26,5 100991,9 0,0000000
-1,1 0,9 299,1 26,1 100913,7 0,0000001
-1,1 0,8 298,7 25,7 100859,5 0,0000077
-0,5 0,7 298,4 25,4 100817,4 0,0000216
0 -0,2 298,1 25,1 100836,6 0,0000180
-0,2 0,3 298,6 25,6 100868 0,0000525
-0,5 -0,5 298,4 25,4 100964,6 0,0001131
-0,7 -1 298,7 25,7 101010 0,0000860
-0,9 -1,2 299,6 26,6 101101,5 0,0002942
-0,8 -1,1 300,9 27,9 101131,2 0,0002602
-0,6 -0,6 301,7 28,7 101114,6 0,0000818
-0,5 0,6 302,1 29,1 101015,8 0,0000906
-0,2 1,5 302,5 29,5 100947,6 0,0001372
0,1 1,2 301,4 28,4 100878,3 0,0001000
0 0,6 301,3 28,3 100768,9 0,0000340
-0,4 -0,2 300,9 27,9 100732,8 0,0000371
0 0,2 300,9 27,9 100732,3 0,0000624
1,1 2 299 26 100843,3 0,0000748
1,1 2,6 298,6 25,6 100848 0,0006910
0,7 2,3 298,6 25,6 100936,4 0,0004754
0,3 2,1 298,5 25,5 100968 0,0002178
0,4 1,9 298,3 25,3 101029,1 0,0002216
0,1 0,9 298,3 25,3 101102 0,0003472
0,3 0,9 298,3 25,3 101058,4 0,0002657
0,7 0,7 298,3 25,3 101044,1 0,0002588
1,1 0,5 298,3 25,3 100984,7 0,0002904
1,7 0,3 298 25 100912,9 0,0001770
1,9 0,5 297,9 24,9 100889,2 0,0001158
2 1 297,8 24,8 100841,2 0,0001211
1,2 1,1 297,9 24,9 100902,4 0,0001403
0,8 0,6 297,9 24,9 100974,4 0,0001497
0,9 0 298,2 25,2 101086,6 0,0002182
1 -0,7 298,7 25,7 101125,7 0,0002683
0,8 -1 299,7 26,7 101168,2 0,0002395
0,8 -0,5 299,7 26,7 101126,4 0,0001505
1,2 0,6 299,8 26,8 101074,4 0,0001221
1,4 1,1 300,3 27,3 100997,5 0,0001746
1,6 2,6 299,9 26,9 100894,6 0,0001599
2,3 3,3 300,4 27,4 100809,7 0,0002832
1,8 3,4 300 27 100800 0,0007797
0,2 2,9 299,8 26,8 100770,8 0,0011443
1,6 4,6 299 26 100852,1 0,0007444
0,6 3,7 299 26 100871,2 0,0006643
0,2 2,8 298,9 25,9 100923,3 0,0011292
0,1 2 298,8 25,8 100993 0,0012927
0 1,8 298,7 25,7 101036,5 0,0012050
0,6 1,7 298,8 25,8 101032,9 0,0010175
1,1 0,9 298,8 25,8 101080,1 0,0005729
1 1,1 298,7 25,7 101010 0,0002123
1 0,5 298,7 25,7 100994,6 0,0000852
0,5 -0,4 298,4 25,4 100904,8 0,0000479
0,5 -0,9 298,5 25,5 100886,4 0,0000142
0,5 -1,2 298,4 25,4 100885,3 0,0000084
-0,3 -2,5 297,9 24,9 100903 0,0000017
-0,3 -2,8 297,8 24,8 100953,8 0,0000011
-0,1 -2,9 298,2 25,2 100990,2 0,0000171
0,3 -2,7 298,8 25,8 101056,6 0,0000564
0,4 -2,6 299,8 26,8 101035,7 0,0000506
0,4 -2,1 300,6 27,6 101014,5 0,0000457
0,7 -1,5 301,1 28,1 100981,5 0,0000116
0,9 -0,9 301,7 28,7 100891,2 0,0000465
1,4 0,1 302,4 29,4 100839 0,0000000
1,6 0,9 303,1 30,1 100750,3 0,0000059
1,3 1,2 303 30 100673,1 0,0000000
0,6 1,1 303 30 100652,7 0,0000000
0,2 1,2 301,9 28,9 100750 0,0000007
-0,1 0,8 301,3 28,3 100804,2 0,0000065
-0,2 1,2 301,2 28,2 100852,1 0,0000015
0,2 1,2 300,7 27,7 100905,8 0,0000100
0,5 1 300,5 27,5 100962,8 0,0000022
0,1 1,2 300,1 27,1 100990,9 0,0000024
-0,2 1,2 300 27 100961,4 0,0000017
-0,2 1,1 299,9 26,9 100920,9 0,0000006
0 0,3 299,5 26,5 100890,3 0,0000000
0 -0,1 299,3 26,3 100838 0,0000046
0,2 -0,3 299,1 26,1 100798,6 0,0000082
0,1 -0,5 298,9 25,9 100811,5 0,0000017
-0,3 -0,5 299 26 100845,8 0,0000163
-0,3 -0,7 298,9 25,9 100886,6 0,0000058
-0,2 -0,7 299,3 26,3 100912,2 0,0000000
0,3 -0,6 300,3 27,3 100975,3 0,0000001
0,5 -0,1 301,6 28,6 100988,9 0,0000001
0,9 0,9 302,7 29,7 100969,7 0,0000089
0,9 1,6 303,2 30,2 100918,9 0,0000019
0,5 2,3 303,8 30,8 100845,2 0,0000115
0,1 2,6 303,9 30,9 100772 0,0000427
-0,2 2,9 303,9 30,9 100692,3 0,0000638
-0,3 3,3 302,3 29,3 100594,3 0,0000136
-0,1 3,5 302,2 29,2 100591,4 0,0000170
-0,8 3,3 301,8 28,8 100725,1 0,0000119
-1,1 2,9 301,3 28,3 100781,4 0,0000094
-1,4 2,6 301,1 28,1 100859 0,0000049
-1,2 2,1 300,9 27,9 100922,3 0,0000123
-1,3 1,4 300,9 27,9 100973,6 0,0000170
-1,4 1,2 300,3 27,3 100990 0,0000009
-1,8 0,6 300,1 27,1 101014,5 0,0000000
-2,4 -0,3 299,9 26,9 100976,3 0,0000274
-2,3 -0,5 299,7 26,7 100936,9 0,0000004
-2,4 -1 299,6 26,6 100896,7 0,0000269
-2,3 -1,6 299,5 26,5 100865,1 0,0000061
-1,9 -2 299,3 26,3 100839,1 0,0000148
-2,1 -1,4 298,9 25,9 100876,8 0,0000238
-1,6 -1,7 298,5 25,5 100922,1 0,0001231
-1,4 -1,7 298,6 25,6 100978,6 0,0000779
-1,4 -1,8 299,3 26,3 101050,8 0,0001374
-1,5 -1,5 300,6 27,6 101079,5 0,0002181
-1,6 -0,6 301,3 28,3 101051 0,0001706
-1,3 0,4 302 29 101054,8 0,0001245
-1,4 2 302,2 29,2 100981,3 0,0001024
-2 2,9 301,3 28,3 100894,9 0,0000561
-3,1 3,1 301,1 28,1 100788,4 0,0000363
-3,3 2,7 301,2 28,2 100749,9 0,0000239
-2,9 2,2 300,9 27,9 100729,9 0,0000835
-1,4 2,4 300,1 27,1 100796 0,0001056
-1,5 0,9 300 27 100898,2 0,0002146
-1,6 1 300 27 100963,2 0,0001533
-1,6 1,1 300 27 101001 0,0000698
-1,3 0,7 299,9 26,9 101024,7 0,0001175
-0,9 0,8 299,5 26,5 101037,7 0,0001604
-0,8 0,7 299,4 26,4 101019,3 0,0001382
-0,6 0,5 299,3 26,3 100947,5 0,0000259
-0,5 -0,1 299,1 26,1 100882,1 0,0000075
-0,3 -1 299 26 100809,6 0,0000001
0,4 -1,6 298,7 25,7 100801,7 0,0000000
0,8 -1,6 298,7 25,7 100803,4 0,0000000
0,4 -1,8 297,9 24,9 100834,9 0,0000000
0 -1,7 297,6 24,6 100875,7 0,0000000
-0,4 -1,7 297,8 24,8 100955,4 0,0000599
-0,3 -2 298,6 25,6 101006,6 0,0000159
-0,5 -2 299,9 26,9 101071,5 0,0000055
-0,2 -1,7 301,2 28,2 101052 0,0000018
-0,7 -1,2 302,1 29,1 101008,9 0,0000003
-0,8 -0,6 303,3 30,3 100915,1 0,0000031
-0,5 0,2 303,9 30,9 100804,7 0,0000000
-0,3 1,1 304 31 100696,6 0,0000000
-0,2 1,4 304,2 31,2 100650,1 0,0000000
0 1,4 303,4 30,4 100640,9 0,0000000
0,6 0,6 302,4 29,4 100675,7 0,0000004
1,5 0,5 301,8 28,8 100694,2 0,0000001
1,6 0,7 301,4 28,4 100744,4 0,0000031
1,6 0,7 301 28 100764,7 0,0000002
1,4 0,4 300,7 27,7 100851 0,0000004
1,4 0,2 300 27 100881,3 0,0000008
1,2 0,5 299,8 26,8 100879,7 0,0000001
0,8 0,5 299,3 26,3 100861,5 0,0000000
0,6 0,3 299 26 100824,5 0,0000000
0,4 0,1 298,9 25,9 100760,3 0,0000000
0,2 -0,4 298,7 25,7 100772,7 0,0000003
0 -0,8 298,6 25,6 100750,3 0,0000004
-0,5 -1,4 299,2 26,2 100762 0,0000007
-0,6 -1,7 299,2 26,2 100777,5 0,0000010
-0,4 -1,5 299,5 26,5 100860 0,0000013
-0,3 -1,4 300,5 27,5 100900,4 0,0000003
-0,3 -0,8 301,8 28,8 100939,9 0,0000000
-0,2 0 302,8 29,8 100924,3 0,0000000
0 0,7 303,4 30,4 100885,6 0,0000048
-0,2 1,3 303,8 30,8 100789,8 0,0000002
-0,3 1,9 303,9 30,9 100712,4 0,0000002
-0,5 2,4 303,3 30,3 100602,8 0,0000011
0 2,8 303,7 30,7 100526,3 0,0000036
-1,1 2,2 302,8 29,8 100548,8 0,0000076
-1,2 2 302 29 100609,9 0,0000038
-1,1 1,2 301,6 28,6 100641,7 0,0000037
-1,3 0,2 301,2 28,2 100749,1 0,0000019
-1,4 -0,9 300,7 27,7 100777,4 0,0000308
-1 -1 300,3 27,3 100842 0,0000404
-0,4 -0,9 299,8 26,8 100871 0,0000172
-0,4 -0,9 299,8 26,8 100855 0,0000004
-0,2 -0,7 299,6 26,6 100836,5 0,0000041
0,1 -0,5 299,4 26,4 100799,6 0,0000009
0,1 -0,1 299,2 26,2 100711,2 0,0000018
0,2 -0,3 299,2 26,2 100704 0,0000008
0,5 -0,8 299,2 26,2 100707,3 0,0000003
-0,5 -1 299,1 26,1 100786,1 0,0000046
-0,3 -1,2 299,1 26,1 100806,7 0,0000033
0,2 -1 299,1 26,1 100868,8 0,0000445
0,1 -1,2 299,7 26,7 100953,8 0,0000901
0,2 -1 300,6 27,6 101051,1 0,0000496
0,2 -0,3 301,2 28,2 101002,1 0,0001962
0,1 0,6 301,3 28,3 100971,5 0,0000561
-0,4 1,2 301,5 28,5 100879,7 0,0002230
-0,8 1,7 301,8 28,8 100779,5 0,0001544
-0,2 2,1 302,2 29,2 100703,1 0,0000660
-0,2 2,4 300,9 27,9 100657,4 0,0001001
0,1 2,3 300,2 27,2 100664,1 0,0003812
0,1 1,4 300,4 27,4 100703,8 0,0003313
-0,3 0,6 300,1 27,1 100771,1 0,0003370
-0,7 -0,1 299,8 26,8 100906,9 0,0002918
-0,9 0 299,2 26,2 100968,8 0,0004348
-1,5 -0,6 299,2 26,2 101035 0,0002832
-1,5 -1,4 298,9 25,9 101040,9 0,0000943
-0,9 -1,8 298,7 25,7 101044,9 0,0000236
-0,7 -1,6 298,6 25,6 101015 0,0000315
-0,4 -1,4 298,3 25,3 100974,6 0,0000385
-0,5 -1,2 297,9 24,9 100925 0,0000035
-0,6 -0,6 297,8 24,8 100878 0,0000001
-1 -0,6 297,7 24,7 100901,9 0,0000048
0 -1,5 298,1 25,1 100895,6 0,0000306
0,4 -1,6 298 25 101001,2 0,0001005
0,6 -1,5 298,5 25,5 101096,5 0,0001372
1 -1,5 299,3 26,3 101165,8 0,0001047
1,1 -1,7 300 27 101188 0,0001062
1,2 -1,5 300,9 27,9 101141,2 0,0001398
1,4 -1,5 301,9 28,9 101091,8 0,0001067
1,2 -1,2 302,3 29,3 100960,3 0,0001203
1,2 -0,4 302,5 29,5 100835,7 0,0000349
1,5 0,4 302 29 100776,8 0,0000541
1,9 1,1 300,7 27,7 100743,2 0,0000696
2,4 1,3 299,9 26,9 100762,2 0,0000333
2,3 2 300,5 27,5 100833,1 0,0000072
2,5 1,4 300,2 27,2 100930,9 0,0000259
2,6 0,9 300,1 27,1 101058,9 0,0000035
2,3 0,3 299,9 26,9 101129,5 0,0001483
1,9 -0,2 299,5 26,5 101244,1 0,0005091
1,6 0,1 299,2 26,2 101230,8 0,0000828
2,1 -0,2 299 26 101269,8 0,0000331
2 0,5 298,7 25,7 101177,7 0,0000093
2,2 0,3 298,5 25,5 101140,5 0,0000116
2,6 -0,7 298,1 25,1 101069,4 0,0000177
3 -1,1 297,8 24,8 101051,4 0,0000103
2,9 -1 298 25 101064,9 0,0000088
1,3 -1,2 297,9 24,9 101090,6 0,0000571
1,2 -1,3 297,8 24,8 101125,6 0,0000586
0,5 -1,6 298 25 101195 0,0003590
0,6 -1,5 299,1 26,1 101267,5 0,0004080
0,3 -1,2 300 27 101273,2 0,0003918
0,7 -0,5 301,1 28,1 101244,7 0,0003447
1 0,1 301,8 28,8 101140,7 0,0003140
1,3 0,2 302,3 29,3 101037,9 0,0002378
1,6 0,1 302,6 29,6 100923,6 0,0001453
1,7 0,2 302,8 29,8 100835,7 0,0000758
2,1 0,2 302,8 29,8 100768,6 0,0000613
2,4 0,5 302,1 29,1 100773,8 0,0000333
2,3 0,3 301,5 28,5 100779,7 0,0000371
2,3 -0,4 301,1 28,1 100859,2 0,0000709
2,4 -0,7 300,6 27,6 100962,1 0,0000301
2,3 -1,3 300,4 27,4 101058,3 0,0001168
2,1 -1,5 299,9 26,9 101112,6 0,0002162
1,9 -1,7 299,3 26,3 101141,6 0,0000052
1,3 -1,9 299,2 26,2 101125,6 0,0000047
1,4 -1,9 298,9 25,9 101071,7 0,0000244
1,9 -1,5 298,8 25,8 101014,2 0,0000300
2,1 -1,2 298,6 25,6 100926,9 0,0000243
2,3 -1,1 298,4 25,4 100885,7 0,0000149
2,2 -1,3 298,3 25,3 100884,3 0,0000024
1,3 -2 298,7 25,7 100950,1 0,0000002
1,1 -2 298,6 25,6 100968,6 0,0000003
0,9 -1,9 299 26 101090,7 0,0000032
0,9 -1,9 300 27 101121,2 0,0000001
0,8 -2 301,3 28,3 101153,1 0,0000000
0,9 -1,8 302,6 29,6 101117,8 0,0000000
1,3 -0,9 303,5 30,5 101057 0,0000000
1,6 0 303,8 30,8 100925,8 0,0000000
1,7 0,9 303,1 30,1 100855,4 0,0000000
1,4 2,2 301,2 28,2 100744,5 0,0000020
2 3,1 300,3 27,3 100727 0,0000056
1,9 2,7 300,3 27,3 100809,1 0,0000193
2,1 2,2 299,4 26,4 100845,3 0,0000932
1 1,9 299,3 26,3 100882,9 0,0009446
0,9 1,3 299,4 26,4 100928,3 0,0007081
1,5 1,1 299,5 26,5 101010 0,0008563
1,8 1,5 299,5 26,5 101048,2 0,0007448
2,4 1,7 299,1 26,1 101058,1 0,0008945
2,6 1,1 298,7 25,7 101059,2 0,0004226
1,9 0,3 298,3 25,3 101037,2 0,0000686
2 0,2 297,9 24,9 100980,6 0,0000758
1,8 0 297,8 24,8 100919,3 0,0000643
1,3 -0,9 298 25 100887,1 0,0000288
1,1 -0,9 297,9 24,9 100877,6 0,0002404
0,9 -1,1 298,2 25,2 100952,1 0,0004427
0,1 -1,9 298,3 25,3 100982,8 0,0005432
-0,7 -2,4 298,8 25,8 101095,5 0,0000467
-1,3 -2,7 299,3 26,3 101147,8 0,0000868
-1,4 -2,7 299,8 26,8 101182,5 0,0001980
-1,5 -2,6 300,7 27,7 101158,2 0,0003142
-1 -2,1 301,4 28,4 101099,1 0,0000986
-0,6 -1,8 302,2 29,2 101032,3 0,0000956
-0,4 -1,2 302,9 29,9 100913,3 0,0000467
-0,5 -0,6 301,7 28,7 100832 0,0000354
-0,1 0,4 300,2 27,2 100770,5 0,0000600
1 0,5 299,9 26,9 100808,3 0,0000358
1,7 0,4 299,5 26,5 100781,6 0,0000470
1,7 -0,6 299,4 26,4 100881,4 0,0000664
1 -1,3 299,2 26,2 100980,3 0,0001733
0,7 -1,2 299,2 26,2 101053,8 0,0002982
0,4 -1,4 298,9 25,9 101080 0,0004270
0,5 -1,2 298,5 25,5 101115,2 0,0000639
0,5 -1,5 298,4 25,4 101074,1 0,0000840
0 -1,9 298,2 25,2 101049 0,0000553
-0,3 -1,9 298,1 25,1 100991,2 0,0000485
-0,4 -2 298 25 100923,1 0,0001053
-0,5 -2,2 298 25 100891,5 0,0000588
-0,4 -2,3 297,9 24,9 100887,8 0,0000201
-1 -3,1 298,2 25,2 100928,5 0,0000619
-1,1 -2,6 298 25 100997,3 0,0000143
-1,1 -2,4 298,5 25,5 101082,4 0,0000166
-0,9 -2,4 299,5 26,5 101115,2 0,0000016
-0,5 -2,6 301 28 101150,5 0,0000022
0,2 -2,3 302,3 29,3 101079,1 0,0000008
0,7 -1,4 303,1 30,1 101027,2 0,0000000
0,7 -0,5 303,8 30,8 100926,6 0,0000001
0,5 0,5 304,1 31,1 100804,8 0,0000002
0,4 1,4 304,2 31,2 100724,2 0,0000056
0,5 1,8 304,1 31,1 100659,9 0,0000212
0,9 1,6 302,6 29,6 100674,8 0,0000308
1,2 1,5 301,9 28,9 100746,7 0,0000249
1,1 0,6 301,3 28,3 100799 0,0000038
1,5 0 301,1 28,1 100890,9 0,0000097
1,3 -0,2 300,8 27,8 100942,4 0,0000074
0,9 -0,8 300,4 27,4 101044,3 0,0000710
0,6 -1,3 299,6 26,6 101077,5 0,0000685
0,2 -1,3 299,4 26,4 101114,4 0,0001390
-0,3 -1,2 299,1 26,1 101086,4 0,0000053
-0,5 -1,2 298,6 25,6 101050 0,0000019
-0,5 -1,5 298,3 25,3 100953,9 0,0000018
-0,2 -1 298,4 25,4 100919,1 0,0000020
0 -1,3 298,4 25,4 100938 0,0000033
-0,5 -1,9 298,8 25,8 100908,5 0,0000334
-0,2 -2,1 298,5 25,5 100958,7 0,0002758
-0,5 -2 298,7 25,7 101037,9 0,0001279
-0,6 -1,8 299,7 26,7 101086,1 0,0000582
-0,6 -1,6 301,1 28,1 101113,8 0,0000320
-0,4 -1,4 302,3 29,3 101060,3 0,0000119
-0,1 -0,8 303 30 101000,6 0,0000013
0 0,2 303,6 30,6 100898 0,0000001
0,1 1,3 303,5 30,5 100834,1 0,0000000
0,1 2,2 303,2 30,2 100741,7 0,0000001
0 2,5 301,8 28,8 100643,8 0,0000083
-0,2 2 301,4 28,4 100655,5 0,0000131
0,7 1,8 302 29 100694,1 0,0000234
0,2 1,2 301,7 28,7 100819,8 0,0000106
0 0,8 301,5 28,5 100914,5 0,0000039
-0,1 0,4 301,3 28,3 100964,7 0,0000408
0,4 -0,3 300,7 27,7 101040,6 0,0002990
1,3 -1 299,9 26,9 101076,3 0,0000030
1,2 -1 299,7 26,7 101084 0,0000116
1,4 -1,1 299,3 26,3 101032,9 0,0000000
1,3 -1,3 298,9 25,9 101006,3 0,0000006
1 -1,5 298,8 25,8 100942,3 0,0000033
0,7 -1,3 298,6 25,6 100919,2 0,0000016
0,7 -1,2 298,5 25,5 100936,5 0,0000009
-0,2 -1,1 298,2 25,2 100952,7 0,0000036
-0,7 -1,3 298,1 25,1 101017,9 0,0000870
-0,7 -1,1 298,3 25,3 101065 0,0000192
-0,8 -0,9 299,3 26,3 101146,3 0,0000988
-0,9 -0,3 300,6 27,6 101180,4 0,0000635
-1,1 1,1 302 29 101120,1 0,0002377
-1,2 1,8 302,7 29,7 101056,2 0,0001652
-1,2 2,2 303,3 30,3 100912,6 0,0001208
-1 2,7 302,7 29,7 100820,8 0,0000235
-0,3 3,3 302,2 29,2 100719,3 0,0000153
-1 3 302,2 29,2 100646,7 0,0000273
-1,3 2,7 301,8 28,8 100659 0,0000223
-0,9 1,3 300,9 27,9 100731,4 0,0000267
-0,6 0,7 300,8 27,8 100770,1 0,0000693
-0,6 0,3 300,4 27,4 100775,6 0,0013614
-0,4 -0,1 300,2 27,2 100863,4 0,0001076
-0,3 -0,5 299,8 26,8 100922,6 0,0000241
-0,3 -0,8 299,2 26,2 100951,5 0,0000060
-0,3 -0,9 299 26 100957,7 0,0000313
-0,1 -0,8 298,8 25,8 100913,1 0,0000145
0,1 -0,7 298,9 25,9 100849,5 0,0000063
-0,2 -0,7 298,9 25,9 100806,4 0,0000328
-0,2 -0,6 298,8 25,8 100767,4 0,0000588
-0,2 -0,8 298,5 25,5 100794,3 0,0000766
-0,7 -1,1 298,7 25,7 100832,9 0,0000423
-0,4 -0,9 298,6 25,6 100885,4 0,0000061
-0,5 -0,9 299 26 100963,3 0,0000068
-0,2 -0,8 300 27 101023 0,0000152
-0,1 -0,6 301,2 28,2 101060,9 0,0000101
-0,1 0,1 302,1 29,1 101022,5 0,0000509
-0,3 0,6 302,9 29,9 100956,5 0,0000146
-0,1 1,4 303,4 30,4 100889,1 0,0000597
-0,3 2 302,2 29,2 100780,2 0,0000612
-0,6 2,3 301,4 28,4 100661,6 0,0000219
0,3 2,4 301,7 28,7 100655,9 0,0000214
-0,3 2 301,6 28,6 100615,1 0,0000134
0,2 1,7 301,5 28,5 100657,3 0,0000265
-0,1 1,3 301 28 100733,4 0,0002633
-0,1 1 300,8 27,8 100774 0,0000970
-0,4 0,6 300,6 27,6 100854,9 0,0001549
-0,1 0,1 300,3 27,3 100915 0,0002879
-0,1 -0,2 299,7 26,7 100913,9 0,0000006
-0,1 -0,3 299,4 26,4 100936,4 0,0000000
0 0 299,3 26,3 100885,4 0,0000000
0,2 0,1 299 26 100856,1 0,0000000
-0,1 0 298,9 25,9 100780,6 0,0000000
-0,3 -0,3 298,8 25,8 100745,6 0,0000007
-0,3 -0,6 298,4 25,4 100738,4 0,0000021
-0,5 -0,2 298,6 25,6 100794,9 0,0000002
-0,3 -0,4 298,4 25,4 100870,2 0,0000001
0 -0,4 298,9 25,9 100894,4 0,0000004
0,1 0 299,8 26,8 100953,4 0,0000049
0,4 0,8 301,1 28,1 100964,7 0,0000097
0,5 1,4 302,4 29,4 100930,2 0,0000201
0 1,9 302,9 29,9 100912,4 0,0000265
-0,7 2,4 302,8 29,8 100802 0,0000332
-0,3 3 301,4 28,4 100747 0,0000514
1,1 3,1 301,6 28,6 100703,2 0,0000622
1,6 3,3 301,3 28,3 100643,9 0,0000292
1,4 3 300,6 27,6 100657,5 0,0000186
1,6 2,6 300,6 27,6 100686,7 0,0002852
1,4 1,8 300,4 27,4 100739,7 0,0014008
1,5 1 300,2 27,2 100825,1 0,0010562
1 0,5 299,7 26,7 100940,4 0,0002606
0,5 0,2 299,3 26,3 100979,4 0,0000200
0 -0,1 298,8 25,8 100974,4 0,0000526
-0,5 -0,1 298,6 25,6 100961,5 0,0000078
-0,9 -0,3 298,7 25,7 100927,1 0,0000034
-0,7 -0,4 298,4 25,4 100876,9 0,0000136
-0,7 -0,5 298,4 25,4 100820,8 0,0000291
-0,3 -0,7 298,3 25,3 100784,8 0,0000558
0 -0,9 298,1 25,1 100762,2 0,0000931
-0,1 -1 298,5 25,5 100791,7 0,0000771
-0,2 -1,4 298,3 25,3 100862,5 0,0000503
0 -1,6 298,8 25,8 100897,3 0,0000114
0,1 -1,7 299,8 26,8 100926,4 0,0000095
0,1 -1,3 301,2 28,2 100947,5 0,0000037
0,2 -0,3 302,3 29,3 100927,8 0,0000052
0,4 0,6 302,9 29,9 100925,5 0,0000133
0,4 1,2 303,4 30,4 100828,8 0,0000092
0,1 1,7 303,8 30,8 100777,6 0,0000031
0,1 2,2 303,2 30,2 100711,5 0,0000172
0,1 1,8 302,1 29,1 100662,5 0,0000265
0,5 1,5 301,8 28,8 100654,6 0,0000268
0,6 2 300,5 27,5 100712,4 0,0000060
0,2 2,2 300,3 27,3 100775,9 0,0000135
0,2 2,3 300,3 27,3 100838,3 0,0001989
0,5 2,3 300,3 27,3 100922,1 0,0002472
0,7 2,2 300,2 27,2 100986 0,0000758
0,9 1,9 299,6 26,6 101015,5 0,0000331
1,4 1,3 299,3 26,3 101002,4 0,0000104
1,5 0,9 299 26 100993,7 0,0000032
1,6 0,7 299 26 100911,5 0,0000054
1,9 0,1 298,9 25,9 100868,7 0,0000079
2 -0,2 298,8 25,8 100825,9 0,0000464
2 -0,5 298,3 25,3 100825 0,0001084
1,3 -1 298,9 25,9 100851,6 0,0000865
0,9 -1,1 298,8 25,8 100920,9 0,0000204